Live Daten numerisch mit Wetter 2024

Lade Daten...
Meßzeitpunkt CountsPerMinute AverageCPM µSv/h Fehlmessung Sonnenstrahlung [W/m²] Windrichtung [Grad] Luftfeuchtigkeit [%] Temperatur [°C] Windgeschwindigkeit [km/h] Luftdruck [hPa] Niederschlag [mm] Niederschlag pro Tag [mm]
2024-06-25 01:44:21 10 14.2 0.05 0 270 66 18 3 1023.37 0 0
2024-06-25 00:34:23 14 16.6 0.07 0 270 64 19 2 1024.04 0 0
2024-06-24 08:39:14 9 15.5 0.045 467.8 274 59 22 4 1024.72 0 0
2024-06-24 08:08:57 16 15.9 0.08 376.4 318 61 22 2 1024.72 0 0
2024-06-24 07:37:42 23 14.7 0.115 271.8 31 62 21 5 1024.72 0 0
2024-06-24 07:07:25 7 14.6 0.035 185.1 276 64 20 5 1024.04 0 0
2024-06-24 06:37:24 7 13.3 0.035 112.3 264 67 19 5 1024.04 0 0
2024-06-24 06:07:06 13 15.5 0.065 44.4 261 69 18 4 1024.04 0 0
2024-06-24 05:37:05 8 14.4 0.04 26.1 280 68 18 3 1024.38 0 0
2024-06-24 05:06:59 12 14.3 0.06 8.5 270 69 18 5 1024.04 0 0
2024-06-24 04:36:49 1 0.2 0.005 0.6 247 68 19 3 1023.71 0 0
2024-06-24 04:04:17 18 15.4 0.09 0 258 67 19 6 1023.71 0 0
2024-06-24 02:54:17 12 14.2 0.06 0 267 62 20 5 1023.71 0 0
2024-06-24 01:44:19 13 15.3 0.065 0 280 60 21 3 1023.37 0 0
2024-06-24 00:34:19 10 17.6 0.05 0 294 57 21 4 1023.03 0 0
2024-06-23 15:12:29 11 14.1 0.055 755.8 348 45 26 7 1021.67 0 0
2024-06-23 14:42:27 19 13.8 0.095 283.1 348 47 25 7 1021.33 0 0
2024-06-23 14:12:27 18 15.3 0.09 328.4 240 51 25 6 1021.67 0 0
2024-06-23 13:42:26 21 15 0.105 997.8 18 46 25 6 1022.01 0 0
2024-06-23 13:12:13 11 16.9 0.055 630.2 5 42 26 4 1022.35 0 0
2024-06-23 12:42:12 2 0.3 0.01 937.7 300 46 25 5 1022.01 0 0
2024-06-23 12:12:11 12 13.2 0.06 413.9 264 48 24 6 1022.01 0 0
2024-06-23 11:40:48 18 16.3 0.09 883.6 7 50 24 9 1022.35 0 0
2024-06-23 11:10:29 15 13.9 0.075 872.6 324 53 23 6 1022.01 0 0
2024-06-23 10:40:29 14 16.1 0.07 215.6 258 53 22 9 1022.01 0 0
2024-06-23 10:10:27 13 14.8 0.065 720.8 312 54 22 5 1022.01 0 0
2024-06-23 09:40:00 9 13.9 0.045 650.7 276 56 22 7 1022.01 0 0
2024-06-23 09:09:43 10 13.9 0.05 639 307 56 21 4 1022.01 0 0
2024-06-23 08:39:43 12 13.6 0.06 558.1 324 59 21 9 1021.67 0 0
2024-06-23 08:09:19 10 14.4 0.05 303.6 276 61 21 5 1021.67 0 0
2024-06-23 07:39:19 14 12.8 0.07 288.2 294 65 20 4 1021.33 0 0
2024-06-23 07:09:18 16 13.5 0.08 140.5 264 69 19 4 1021.33 0 0
2024-06-23 06:39:17 12 14.1 0.06 162.2 292 69 19 0 1021 0 0
2024-06-23 06:09:12 18 15.9 0.09 43.5 271 71 19 5 1020.66 0 0
2024-06-23 05:39:11 16 16.4 0.08 25.5 276 66 19 9 1020.32 0 0
2024-06-23 05:09:10 12 16.2 0.06 9.6 247 63 19 8 1019.98 0 0
2024-06-23 04:39:09 1 0.1 0.005 0.5 259 59 19 4 1020.32 0 0
2024-06-23 04:04:17 13 14.8 0.065 0 300 59 19 6 1019.98 0 0
2024-06-23 02:54:24 12 13.5 0.06 0 271 59 20 4 1019.3 0 0
2024-06-23 01:44:24 14 13.1 0.07 0 288 55 21 7 1018.96 0 0
2024-06-23 00:34:56 11 16.5 0.055 0 264 55 21 7 1018.63 0 0
2024-06-22 01:44:27 16 14.5 0.08 0 259 76 24 10 1017.27 0 0
2024-06-22 00:34:30 18 15.6 0.09 0 259 78 25 2 1016.59 0 0
2024-06-21 16:41:22 16 14.3 0.08 375.5 191 67 30 5 1018.29 0 0
2024-06-21 16:10:58 15 15.4 0.075 248.4 162 68 29 7 1018.96 0 0
2024-06-21 15:40:57 7 13.2 0.035 265.1 119 68 29 4 1018.96 0 0
2024-06-21 15:10:56 13 14.3 0.065 651.6 100 66 30 7 1019.64 0 0
2024-06-21 14:10:20 14 15.7 0.07 679.4 134 66 29 4 1020.32 0 0
2024-06-21 13:40:18 14 15.4 0.07 785.9 230 65 29 12 1020.66 0 0
2024-06-21 13:10:18 14 15.4 0.07 789.7 120 68 28 9 1021 0 0
2024-06-21 12:40:13 1 0.2 0.005 830.9 132 68 28 6 1021.33 0 0
2024-06-21 12:09:56 21 17.5 0.105 847.7 123 67 28 4 1021.67 0 0
2024-06-21 11:39:09 16 15.5 0.08 346.4 78 69 27 4 1021.67 0 0
2024-06-21 11:08:52 12 14.7 0.06 672.5 90 70 27 6 1022.01 0 0
2024-06-21 10:38:51 14 15.4 0.07 712.8 96 70 26 4 1022.01 0 0
2024-06-21 10:08:28 14 16.2 0.07 657.8 102 72 26 2 1022.35 0 0
2024-06-21 09:38:27 17 15.2 0.085 582.2 138 73 24 3 1022.35 0 0
2024-06-21 09:08:10 15 14.1 0.075 502.3 96 72 25 5 1022.69 0 0
2024-06-21 08:37:50 15 14 0.075 410.9 186 72 24 0 1023.03 0 0
2024-06-21 08:07:29 15 13.7 0.075 325.8 42 73 23 0 1023.03 0 0
2024-06-21 07:07:10 12 14.5 0.06 157.4 209 74 22 0 1022.69 0 0
2024-06-21 06:37:09 19 13.2 0.095 104.6 258 78 21 0 1022.69 0 0
2024-06-21 06:07:08 17 15.7 0.085 50.7 258 88 19 0 1023.03 0 0
2024-06-21 05:37:07 13 14.9 0.065 27.3 258 90 18 0 1023.03 0 0
2024-06-21 05:06:53 13 15 0.065 7.7 258 90 18 0 1023.03 0 0
2024-06-21 04:36:52 1 0.1 0.005 0.4 258 89 18 0 1022.69 0 0
2024-06-21 04:04:30 12 16.4 0.06 0 258 89 18 0 1023.03 0 0
2024-06-21 02:55:25 16 10.8 0.08 0 258 87 19 0 1023.37 0 0
2024-06-21 01:44:42 17 14.4 0.085 0 273 85 20 0 1023.71 0 0
2024-06-21 00:34:44 22 17.4 0.11 0 180 84 20 0 1024.04 0 0
2024-06-20 23:49:39 12 14.1 0.06 0 180 81 21 0 1024.04 0 0
2024-06-20 23:19:04 23 15.7 0.115 0 180 78 21 0 1023.37 0 0
2024-06-20 22:48:31 12 13 0.06 0 180 73 22 0 1023.37 0 0
2024-06-20 22:17:54 15 15.1 0.075 0 282 73 22 3 1024.38 0 0
2024-06-20 21:47:53 13 16.1 0.065 0 142 72 23 4 1023.71 0 0
2024-06-20 21:17:52 8 13 0.04 0 202 71 23 2 1024.38 0 0
2024-06-20 20:47:51 16 15.4 0.08 1.7 202 72 23 0 1024.38 0 0
2024-06-20 20:17:36 12 14.9 0.06 13.7 202 67 23 2 1024.38 0 0
2024-06-20 19:47:35 18 13.6 0.09 44.7 92 62 24 2 1023.37 0 0
2024-06-20 19:17:16 21 15.4 0.105 61.9 97 60 24 4 1024.38 0 0
2024-06-20 18:44:32 12 15.1 0.06 160.4 90 58 25 2 1024.38 0 0
2024-06-20 18:13:45 16 14.4 0.08 142.4 57 59 25 4 1024.72 0 0
2024-06-20 17:43:44 6 14.3 0.03 251.6 90 57 25 6 1024.72 0 0
2024-06-20 17:13:25 10 14.9 0.05 301.7 141 58 25 2 1025.4 0 0
2024-06-20 16:43:24 17 16.2 0.085 535.1 132 54 25 4 1025.4 0 0
2024-06-20 16:13:07 17 14.9 0.085 444.3 72 54 25 3 1026.08 0 0
2024-06-20 15:43:07 14 13.8 0.07 532.9 118 57 24 3 1026.75 0 0
2024-06-20 15:12:49 19 15.9 0.095 757.7 108 56 24 5 1027.09 0 0
2024-06-20 14:42:48 15 16.2 0.075 572.1 72 57 24 5 1027.43 0 0
2024-06-20 14:12:47 12 13.3 0.06 437.7 60 56 24 2 1027.43 0 0
2024-06-20 13:41:48 16 16.3 0.08 385 204 58 24 2 1027.43 0 0
2024-06-20 13:11:29 21 16.9 0.105 786.8 43 53 24 3 1027.77 0 0
2024-06-20 12:41:28 9 0.9 0.045 818.5 300 54 24 0 1028.11 0 0
2024-06-20 12:11:10 18 15 0.09 920.6 102 57 24 3 1028.11 0 0
2024-06-20 11:41:08 16 14.6 0.08 767 330 56 23 3 1027.77 0 0
2024-06-20 11:10:49 15 18.3 0.075 498.7 108 58 22 2 1027.77 0 0
2024-06-20 10:40:32 15 16.6 0.075 726.3 74 59 23 0 1027.77 0 0
2024-06-20 10:10:16 20 15.7 0.1 279.9 318 67 21 3 1027.77 0 0
2024-06-20 09:40:14 16 13.6 0.08 335.3 348 67 21 0 1028.11 0 0
2024-06-20 09:09:56 11 15.2 0.055 248.4 4 68 20 0 1028.11 0 0
2024-06-20 08:37:28 13 14.9 0.065 122.5 298 78 19 3 1028.11 0 0
2024-06-20 08:07:05 15 14.7 0.075 80.8 305 80 19 0 1027.43 0 0
2024-06-20 07:37:04 10 14.3 0.05 59.6 294 80 19 0 1027.77 0 0
2024-06-20 07:06:45 20 13.2 0.1 69.7 312 79 19 3 1027.09 0 0
2024-06-20 06:36:26 12 15 0.06 40.7 300 79 19 0 1027.09 0 0
2024-06-20 06:06:06 11 13.9 0.055 29.1 308 77 20 3 1027.09 0 0
2024-06-20 05:36:05 11 14.9 0.055 24.8 256 77 19 5 1026.41 0 0
2024-06-20 05:06:04 17 14.7 0.085 5.5 299 76 19 3 1026.08 0 0
2024-06-20 04:36:04 1 0.1 0.005 0.5 267 75 19 7 1025.74 0 0
2024-06-20 04:04:35 15 14.6 0.075 0 268 75 20 5 1025.06 0 0
2024-06-20 02:54:33 17 15.1 0.085 0 311 72 21 2 1024.72 0 0
2024-06-20 01:44:36 12 16.3 0.06 0 38 70 22 4 1024.38 0 0
2024-06-20 00:34:35 13 15.1 0.065 0 0 70 24 6 1023.37 0 0
2024-06-19 23:47:53 17 16.8 0.085 0 310 68 25 4 1022.01 0 0
2024-06-19 23:17:42 15 14.5 0.075 0 300 58 28 8 1021 0 0
2024-06-19 22:47:41 9 14.9 0.045 0 246 66 27 2 1020.32 0 0
2024-06-19 22:17:18 14 15.8 0.07 0 270 68 27 5 1019.98 0 0
2024-06-19 21:47:17 17 16.5 0.085 0 264 62 28 4 1019.64 0 0
2024-06-19 21:16:58 17 14.5 0.085 0.7 270 71 26 0 1019.3 0 0
2024-06-19 20:46:57 17 14.7 0.085 8.7 228 64 28 2 1018.96 0 0
2024-06-19 20:16:40 16 15.5 0.08 32.6 198 66 28 2 1018.96 0 0
2024-06-19 19:46:39 11 15.7 0.055 64.4 168 61 29 0 1018.96 0 0
2024-06-19 19:16:38 16 14.5 0.08 120.8 144 52 30 3 1018.63 0 0
2024-06-19 18:46:37 19 15.2 0.095 93 119 54 30 4 1018.63 0 0
2024-06-19 18:16:04 13 13.5 0.065 138.9 90 55 30 3 1018.63 0 0
2024-06-19 17:46:03 13 13.1 0.065 225.3 96 51 30 0 1018.96 0 0
2024-06-19 17:15:45 13 15.4 0.065 378.8 174 50 30 0 1018.63 0 0
2024-06-19 16:45:46 14 13.9 0.07 474.4 126 50 31 2 1018.63 0 0
2024-06-19 16:15:16 14 14.3 0.07 564.1 132 53 30 4 1018.96 0 0
2024-06-19 15:45:17 14 14.6 0.07 650.8 94 56 30 3 1018.96 0 0
2024-06-19 15:15:15 16 16.1 0.08 720 96 57 30 2 1018.96 0 0
2024-06-19 14:45:09 12 15.8 0.06 768.1 102 55 30 3 1018.63 0 0
2024-06-19 14:14:52 13 13 0.065 807 90 56 30 4 1018.63 0 0
2024-06-19 13:44:51 16 14.1 0.08 841.8 105 56 30 4 1018.96 0 0
2024-06-19 13:14:34 14 15.3 0.07 864.8 102 58 29 3 1018.96 0 0
2024-06-19 12:44:33 4 0.4 0.02 857.7 106 58 29 3 1018.96 0 0
2024-06-19 12:14:16 10 17 0.05 887.4 114 60 29 4 1018.96 0 0
2024-06-19 11:43:59 16 13.8 0.08 807.4 72 61 28 2 1018.96 0 0
2024-06-19 11:13:42 12 16.9 0.06 811.7 114 61 27 2 1018.96 0 0
2024-06-19 10:43:41 21 14 0.105 739.1 60 61 27 0 1018.96 0 0
2024-06-19 10:13:18 10 15 0.05 710.6 60 62 27 4 1018.63 0 0
2024-06-19 09:39:26 10 14.1 0.05 614.4 90 60 26 3 1018.96 0 0
2024-06-19 09:09:03 10 14.6 0.05 551.4 348 62 26 0 1018.96 0 0
2024-06-19 08:39:02 15 14.9 0.075 456.9 324 62 26 0 1018.63 0 0
2024-06-19 08:08:48 10 13.5 0.05 323.3 324 67 25 3 1018.96 0 0
2024-06-19 07:38:47 12 14.2 0.06 286 348 74 23 0 1018.29 0 0
2024-06-19 07:08:30 22 16.4 0.11 192.6 354 74 23 4 1018.29 0 0
2024-06-19 06:38:29 14 14.7 0.07 112.1 3 81 21 0 1017.95 0 0
2024-06-19 06:08:29 10 13.7 0.05 49 3 89 19 0 1017.61 0 0
2024-06-19 05:36:27 12 15.5 0.06 25 3 92 18 0 1017.27 0 0
2024-06-19 05:06:08 12 13.7 0.06 6.6 3 91 18 0 1017.27 0 0
2024-06-19 04:36:07 1 0.1 0.005 0.5 3 90 18 0 1017.27 0 0
2024-06-19 04:04:12 22 15.2 0.11 0 3 88 19 0 1017.27 0 0
2024-06-19 02:54:21 10 14.3 0.05 0 12 84 20 0 1017.95 0 0
2024-06-19 01:44:19 16 16.6 0.08 0 18 75 22 3 1017.95 0 0
2024-06-19 00:34:25 23 14.3 0.115 0 168 71 23 4 1018.63 0 0
2024-06-18 23:47:29 15 14.2 0.075 0 179 69 23 0 1018.96 0 0
2024-06-18 23:16:52 20 14.6 0.1 0 184 67 24 3 1018.96 0 0
2024-06-18 22:46:51 15 15.3 0.075 0 174 67 24 3 1018.96 0 0
2024-06-18 22:16:32 23 14.8 0.115 0 146 64 25 4 1019.3 0 0
2024-06-18 21:46:31 10 12.5 0.05 0 123 65 25 3 1019.64 0 0
2024-06-18 21:16:23 16 17.1 0.08 0.6 168 62 25 2 1019.64 0 0
2024-06-18 20:46:22 20 15.3 0.1 12.1 179 58 26 3 1019.64 0 0
2024-06-18 20:16:02 13 14.5 0.065 24.4 82 55 27 4 1019.64 0 0
2024-06-18 19:46:01 12 15.8 0.06 47.3 156 54 28 5 1019.64 0 0
2024-06-18 19:15:59 17 16.7 0.085 88.5 102 54 28 3 1019.64 0 0
2024-06-18 18:45:58 12 14.4 0.06 176 40 54 29 4 1019.98 0 0
2024-06-18 18:15:57 11 14.9 0.055 118.7 90 49 29 5 1019.98 0 0
2024-06-18 17:45:32 17 15.2 0.085 197.3 138 48 29 9 1020.32 0 0
2024-06-18 17:14:55 10 15.1 0.05 276.3 96 49 29 5 1020.66 0 0
2024-06-18 16:42:57 18 15.8 0.09 440 124 48 29 6 1021 0 0
2024-06-18 16:12:11 13 16.5 0.065 539.3 106 46 30 8 1021.33 0 0
2024-06-18 15:42:10 15 15.4 0.075 707.3 102 49 29 5 1021.67 0 0
2024-06-18 15:12:09 13 13.6 0.065 724.8 49 53 28 5 1021.67 0 0
2024-06-18 14:42:08 10 14.6 0.05 640 118 53 28 7 1022.01 0 0
2024-06-18 14:12:07 13 13.2 0.065 873.5 96 51 28 7 1022.35 0 0
2024-06-18 13:41:58 11 12.2 0.055 885.4 105 52 28 6 1022.69 0 0
2024-06-18 13:11:37 16 13.9 0.08 900.9 111 52 28 5 1022.69 0 0
2024-06-18 12:41:36 3 0.3 0.015 902.9 78 53 27 0 1022.69 0 0
2024-06-18 12:11:33 16 15.9 0.08 909.9 108 53 28 7 1022.69 0 0
2024-06-18 11:39:49 11 14.9 0.055 881.2 162 52 27 3 1023.03 0 0
2024-06-18 11:09:26 26 16.4 0.13 835.8 108 51 27 5 1023.03 0 0
2024-06-18 10:39:25 18 13.7 0.09 761.4 78 54 26 3 1023.37 0 0
2024-06-18 10:09:24 18 14.6 0.09 743.6 96 55 26 3 1023.37 0 0
2024-06-18 09:38:02 14 14.6 0.07 670.4 88 54 26 3 1023.03 0 0
2024-06-18 09:07:41 9 15.7 0.045 489.1 111 58 25 3 1023.03 0 0
2024-06-18 08:37:40 17 15 0.085 478.2 300 53 26 2 1023.03 0 0
2024-06-18 08:07:39 15 13.9 0.075 298.6 330 56 25 0 1023.03 0 0
2024-06-18 07:37:38 17 15.5 0.085 195.9 107 73 22 0 1022.69 0 0
2024-06-18 07:07:19 16 14.6 0.08 112.7 60 70 22 3 1022.69 0 0
2024-06-18 06:37:18 10 15.5 0.05 115.2 186 69 22 0 1022.69 0 0
2024-06-18 06:07:18 22 13.7 0.11 57.8 237 71 21 0 1022.69 0 0
2024-06-18 05:36:20 16 15.2 0.08 26.5 0 72 21 0 1022.69 0 0
2024-06-18 05:06:02 14 17 0.07 6.4 314 70 21 4 1022.69 0 0
2024-06-18 04:36:01 1 0.1 0.005 0.4 348 70 21 7 1022.69 0 0
2024-06-18 04:04:08 19 14.6 0.095 0 268 70 22 4 1022.01 0 0
2024-06-18 02:55:11 3 13.8 0.015 0 264 77 20 4 1022.35 0 0
2024-06-18 01:44:19 15 16.3 0.075 0 272 78 20 0 1022.01 0 0
2024-06-18 00:34:20 10 13.8 0.05 0 268 81 20 0 1021.33 0 0
2024-06-17 23:48:46 9 13.5 0.045 0 193 80 20 0 1021 0 0
2024-06-17 23:18:14 12 16.4 0.06 0 193 80 20 0 1021 0 0
2024-06-17 22:48:00 16 15.5 0.08 0 193 77 21 0 1021 0 0
2024-06-17 22:17:16 15 14.8 0.075 0 216 76 21 3 1021 0 0
2024-06-17 21:46:58 9 14 0.045 0 214 73 22 3 1021 0 0
2024-06-17 21:16:23 12 15.3 0.06 0.5 192 72 22 0 1020.32 0 0
2024-06-17 20:46:22 13 15.8 0.065 6.7 192 68 23 0 1019.98 0 0
2024-06-17 20:16:07 14 14.2 0.07 35.5 192 63 24 2 1020.32 0 0
2024-06-17 19:46:06 12 16.4 0.06 37.3 195 58 25 2 1020.32 0 0
2024-06-17 19:15:43 23 13.7 0.115 131.3 78 54 26 2 1020.32 0 0
2024-06-17 18:45:42 11 14 0.055 137.1 96 53 26 4 1020.32 0 0
2024-06-17 18:15:23 16 16.3 0.08 107.5 82 51 26 5 1020.32 0 0
2024-06-17 17:42:56 10 13.6 0.05 155.9 120 51 27 3 1020.32 0 0
2024-06-17 17:12:21 9 14.6 0.045 314.3 90 50 27 7 1020.32 0 0
2024-06-17 16:42:20 14 14.4 0.07 512.7 48 42 27 6 1020.66 0 0
2024-06-17 16:12:03 18 16.2 0.09 621.3 144 39 28 6 1020.66 0 0
2024-06-17 15:41:48 11 14.9 0.055 576.2 105 49 26 6 1021 0 0
2024-06-17 15:11:15 21 13.8 0.105 345 133 46 27 5 1021 0 0
2024-06-17 14:41:24 8 13.7 0.04 823.4 102 44 27 10 1021 0 0
2024-06-17 14:10:58 14 13.7 0.07 864.1 62 49 27 5 1021 0 0
2024-06-17 13:40:57 13 16.1 0.065 893.3 119 50 27 5 1021 0 0
2024-06-17 13:10:41 15 14.7 0.075 903.9 138 52 26 0 1021.33 0 0
2024-06-17 12:40:40 13 1.3 0.065 912.8 92 52 26 2 1021.67 0 0
2024-06-17 12:10:20 13 14.6 0.065 915.3 113 57 25 4 1021.67 0 0
2024-06-17 11:38:54 15 16.9 0.075 890.3 342 51 26 3 1021.67 0 0
2024-06-17 11:08:33 14 13.2 0.07 847.8 111 54 25 5 1021.67 0 0
2024-06-17 10:38:32 17 12.9 0.085 784.3 55 58 25 0 1021.67 0 0
2024-06-17 10:08:31 22 14.9 0.11 733.6 114 60 23 3 1021.67 0 0
2024-06-17 09:37:56 11 13.4 0.055 653.3 132 66 22 5 1021.67 0 0
2024-06-17 09:07:38 13 15.6 0.065 572.5 89 69 21 5 1021.67 0 0
2024-06-17 08:37:36 22 13.6 0.11 489.3 102 68 22 0 1021.33 0 0
2024-06-17 08:07:20 12 14.9 0.06 382.1 90 72 20 0 1021.33 0 0
2024-06-17 07:37:19 14 14.4 0.07 300.7 151 76 20 4 1021 0 0
2024-06-17 07:07:18 21 15.3 0.105 195.1 214 78 18 0 1021 0 0
2024-06-17 06:36:32 14 15.6 0.07 65.7 214 76 19 0 1021 0 0
2024-06-17 06:06:13 20 16.2 0.1 34.8 213 95 14 0 1020.66 0 0
2024-06-17 05:06:11 10 14.7 0.05 8.1 213 94 13 0 1019.98 0 0
2024-06-17 04:36:10 1 0.1 0.005 0.7 213 94 13 0 1019.64 0 0
2024-06-17 04:04:05 14 15 0.07 0 212 94 13 0 1019.64 0 0
2024-06-17 02:55:42 14 13.5 0.07 0 213 94 14 0 1019.3 0 0
2024-06-17 01:44:15 19 15.3 0.095 0 213 92 14 0 1018.96 0 0
2024-06-17 00:34:15 22 16 0.11 0 212 91 15 0 1018.63 0 0
2024-06-16 23:42:42 9 12.1 0.045 0 212 89 15 0 1018.63 0 0
2024-06-16 23:12:31 13 12.9 0.065 0 212 89 15 0 1018.63 0 0
2024-06-16 22:42:30 16 14.2 0.08 0 212 88 16 0 1018.63 0 0
2024-06-16 22:12:28 12 14.6 0.06 0 212 86 16 0 1018.29 0 0
2024-06-16 21:42:05 10 15.1 0.05 0 212 83 17 0 1018.29 0 0
2024-06-16 21:11:24 13 14.1 0.065 1.1 213 79 18 0 1017.95 0 0
2024-06-16 20:41:24 15 16.1 0.075 11.1 192 74 19 3 1017.61 0 0
2024-06-16 20:11:21 14 15.6 0.07 25.8 172 69 20 3 1017.61 0 0
2024-06-16 19:41:20 15 13.3 0.075 38.6 78 56 22 3 1017.27 0 0
2024-06-16 19:11:19 19 18.6 0.095 84.8 100 54 23 4 1017.27 0 0
2024-06-16 18:41:18 16 16.1 0.08 215.8 120 51 23 3 1017.27 0 0
2024-06-16 18:10:58 17 16.3 0.085 260.1 119 53 23 4 1017.27 0 0
2024-06-16 17:40:57 17 14 0.085 184.5 109 52 23 0 1017.27 0 0
2024-06-16 17:10:56 15 14.4 0.075 193.9 106 52 23 2 1017.27 0 0
2024-06-16 16:40:56 12 14.2 0.06 426.4 77 51 23 0 1017.27 0 0
2024-06-16 16:10:45 12 15.4 0.06 379.8 313 48 23 0 1017.61 0 0
2024-06-16 15:40:44 12 15.5 0.06 675.7 234 51 23 2 1017.95 0 0
2024-06-16 15:10:24 16 14 0.08 300.2 318 54 22 3 1017.95 0 0
2024-06-16 14:40:23 16 15.3 0.08 296 318 56 22 2 1017.95 0 0
2024-06-16 14:10:20 12 13.4 0.06 327.1 214 61 22 3 1018.29 0 0
2024-06-16 13:37:49 8 13.1 0.04 326.4 276 60 21 4 1018.29 0 0
2024-06-16 13:07:28 14 16.1 0.07 456.5 276 59 22 5 1017.95 0 0
2024-06-16 12:37:27 2 0.2 0.01 276.6 318 58 21 11 1018.29 0 0
2024-06-16 12:07:08 10 14.1 0.05 595.6 298 54 22 4 1018.29 0 0
2024-06-16 11:37:08 10 13.3 0.05 461.2 348 58 22 7 1018.29 0 0
2024-06-16 11:07:07 17 13.9 0.085 399.5 256 58 22 3 1017.95 0 0
2024-06-16 10:37:06 10 14.4 0.05 1095 30 58 21 3 1018.29 0 0
2024-06-16 10:06:51 15 15.2 0.075 696.8 306 62 21 6 1017.95 0 0
2024-06-16 09:36:50 16 16.7 0.08 729.7 242 63 21 10 1017.95 0 0
2024-06-16 09:06:34 12 13.2 0.06 620.1 252 64 20 4 1017.95 0 0
2024-06-16 08:36:33 12 13.3 0.06 197.3 342 68 19 12 1017.95 0 0
2024-06-16 08:06:31 14 11.3 0.07 253.3 314 71 19 4 1017.61 0 0
2024-06-16 07:36:30 19 15.5 0.095 174.4 282 75 18 2 1017.95 0 0
2024-06-16 07:06:21 22 13.7 0.11 253.3 246 75 18 3 1017.95 0 0
2024-06-16 06:36:20 8 15.2 0.04 86.9 260 79 17 5 1017.27 0 0
2024-06-16 06:06:05 21 15.6 0.105 46.2 255 79 17 4 1017.27 0 0
2024-06-16 05:36:04 22 14.3 0.11 18.9 265 78 17 5 1017.27 0 0
2024-06-16 05:06:03 13 18.2 0.065 1.9 270 80 17 4 1016.59 0 0
2024-06-16 04:36:02 1 0.1 0.005 0 257 80 17 5 1016.59 0 0
2024-06-16 04:04:17 14 13.3 0.07 0 259 82 16 5 1016.59 0 0
2024-06-16 02:54:31 25 16.9 0.125 0 262 85 16 7 1016.59 0 0
2024-06-16 01:44:28 17 14.1 0.085 0 264 84 17 4 1016.26 0 0
2024-06-16 00:34:28 17 13.4 0.085 0 262 89 16 8 1016.59 0 0
2024-06-15 00:34:36 14 14.1 0.07 0 205 90 13 0 1018.96 0 0
2024-06-14 12:39:17 4 0.4 0.02 621.1 97 55 20 4 1020.32 0 0
2024-06-14 12:08:54 21 13.7 0.105 566.9 156 50 21 4 1020.66 0 0
2024-06-14 11:38:53 19 14.6 0.095 643.8 102 51 20 3 1021 0 0
2024-06-14 11:08:34 12 14.1 0.06 740.3 164 52 20 3 1021 0 0
2024-06-14 10:38:15 10 13.9 0.05 817.9 186 53 19 7 1021.33 0 0
2024-06-14 10:07:58 12 15.1 0.06 732.6 168 56 19 3 1021.67 0 0
2024-06-14 09:37:56 16 14.3 0.08 610.3 96 61 18 4 1021.67 0 0
2024-06-14 09:07:56 11 14 0.055 446.1 97 63 17 4 1021.67 0 0
2024-06-14 08:37:55 14 16.5 0.07 454.7 210 66 17 2 1021.67 0 0
2024-06-14 08:07:44 21 16 0.105 388.4 237 68 16 3 1021.67 0 0
2024-06-14 07:37:10 11 11.5 0.055 286.1 151 66 15 0 1022.01 0 0
2024-06-14 07:06:51 11 13.9 0.055 197.3 114 73 14 4 1022.01 0 0
2024-06-14 06:36:50 7 14.1 0.035 115.8 114 70 15 0 1022.01 0 0
2024-06-14 06:06:32 12 15.9 0.06 37.1 114 87 11 0 1022.35 0 0
2024-06-14 05:36:26 17 16.7 0.085 22.1 114 89 10 0 1022.35 0 0
2024-06-14 05:06:25 20 14.1 0.1 8.1 114 87 11 0 1022.01 0 0
2024-06-14 04:36:24 1 0.1 0.005 0.6 265 76 13 3 1022.01 0 0
2024-06-14 04:04:33 15 15.8 0.075 0 253 79 12 0 1022.01 0 0
2024-06-14 02:54:34 13 13.7 0.065 0 264 73 14 4 1022.01 0 0
2024-06-14 01:44:33 12 14.3 0.06 0 268 71 14 3 1022.35 0 0
2024-06-14 00:34:33 17 17.8 0.085 0 269 65 14 3 1022.35 0 0
2024-06-13 23:41:54 13 14.7 0.065 0 261 66 15 5 1022.35 0 0
2024-06-13 23:11:21 9 15.3 0.045 0 260 63 15 3 1022.35 0 0
2024-06-13 22:41:20 12 13.8 0.06 0 248 66 15 6 1022.35 0 0
2024-06-13 22:11:01 16 14.1 0.08 0 258 66 15 5 1022.01 0 0
2024-06-13 21:41:00 15 14.2 0.075 0 257 69 15 4 1022.01 0 0
2024-06-13 21:10:59 21 18 0.105 1.1 260 68 16 4 1021.67 0 0
2024-06-13 20:40:50 12 14.3 0.06 12.9 268 65 17 3 1021.33 0 0
2024-06-13 20:10:14 21 15.7 0.105 32 264 61 17 4 1021.67 0 0
2024-06-13 19:40:13 19 14.7 0.095 42.5 310 58 18 3 1021.33 0 0
2024-06-13 19:10:12 17 16.1 0.085 51.9 270 56 18 2 1021.33 0 0
2024-06-13 18:40:11 17 16.6 0.085 87.5 330 55 18 5 1021.33 0 0
2024-06-13 18:10:09 14 13.3 0.07 141.6 313 58 18 2 1021.33 0 0
2024-06-13 17:40:04 21 15.3 0.105 149.4 240 56 18 3 1021.33 0 0
2024-06-13 17:09:29 18 15.1 0.09 142.2 262 62 17 4 1021.33 0 0
2024-06-13 16:39:28 11 15 0.055 94.3 247 65 16 4 1021.33 0 0
2024-06-13 16:09:10 5 13.9 0.025 87.5 269 63 18 9 1021.33 0 0
2024-06-13 15:39:09 11 15.4 0.055 306.3 324 41 21 7 1021 0 0
2024-06-13 15:09:08 10 15.5 0.05 428.1 342 42 20 8 1021.33 0 0
2024-06-13 14:39:08 16 14.5 0.08 372.4 0 44 19 5 1021 0 0
2024-06-13 14:09:06 11 13.8 0.055 368.5 246 45 19 3 1021.33 0 0
2024-06-13 13:38:31 12 14.4 0.06 367.9 270 46 20 3 1021.33 0 0
2024-06-13 13:08:09 17 13.2 0.085 484.3 348 47 19 2 1021.33 0 0
2024-06-13 12:38:07 5 0.6 0.025 769.6 318 52 18 8 1021.67 0 0
2024-06-13 12:07:49 9 14.5 0.045 915.9 6 54 19 2 1021.67 0 0
2024-06-13 11:37:48 12 12.9 0.06 575.4 264 61 17 3 1022.01 0 0
2024-06-13 11:07:47 12 15.7 0.06 393 270 64 16 4 1022.35 0 0
2024-06-13 10:37:46 19 13.1 0.095 318.9 270 64 16 4 1022.35 0 0
2024-06-13 10:07:40 13 15.3 0.065 235.2 244 66 15 8 1022.35 0 0
2024-06-13 09:37:39 13 13.3 0.065 177.1 268 68 15 4 1022.35 0 0
2024-06-13 09:07:29 12 15.7 0.06 115.5 330 70 15 2 1022.35 0 0
2024-06-13 08:37:28 10 13.9 0.05 107.3 268 70 15 0 1022.35 0 0
2024-06-13 08:07:27 12 12.3 0.06 137.3 351 71 15 0 1022.35 0 0
2024-06-13 07:37:26 15 14.4 0.075 112.6 12 70 15 2 1022.35 0 0
2024-06-13 07:07:15 16 14.6 0.08 73.9 187 70 15 3 1022.01 0 0
2024-06-13 06:37:14 14 14.7 0.07 60.9 276 68 14 3 1022.01 0 0
2024-06-13 06:07:12 16 14.6 0.08 58.2 330 71 14 0 1021.67 0 0
2024-06-13 05:36:47 15 16.4 0.075 20.5 279 70 13 0 1021.67 0 0
2024-06-13 05:06:30 18 15.3 0.09 6.1 324 75 13 0 1021.67 0 0
2024-06-13 04:36:29 1 0.1 0.005 0.3 264 71 14 0 1021.67 0 0
2024-06-13 04:05:44 20 14.9 0.1 0 269 71 13 4 1022.01 0 0
2024-06-13 02:54:51 15 14.2 0.075 0 270 70 14 3 1022.01 0 0
2024-06-13 01:44:53 12 15.6 0.06 0 275 73 14 0 1022.01 0 0
2024-06-13 00:34:52 13 13.9 0.065 0 265 80 13 4 1022.69 0 0
2024-06-12 23:50:51 12 15.3 0.06 0 264 80 13 4 1022.69 0 1
2024-06-12 23:20:28 10 13.7 0.05 0 270 79 13 4 1022.69 0 1
2024-06-12 22:47:47 10 16.4 0.05 0 259 82 13 2 1023.03 0 1
2024-06-12 22:17:08 12 13.7 0.06 0 260 76 14 3 1023.03 0 1
2024-06-12 21:47:07 10 14.6 0.05 0 268 70 14 3 1023.03 0 1
2024-06-12 21:16:48 13 17.1 0.065 0 259 70 14 4 1022.69 0 1
2024-06-12 20:46:47 12 15.3 0.06 2.1 239 70 15 3 1022.69 0 1
2024-06-12 20:16:24 17 14 0.085 10.6 266 68 15 4 1022.69 0 1
2024-06-12 19:46:23 12 15 0.06 14.8 272 68 15 4 1022.35 0 1
2024-06-12 19:16:22 10 13.1 0.05 36 308 66 16 3 1022.01 0 1
2024-06-12 18:46:22 19 13.1 0.095 88.6 230 63 16 2 1022.69 0 1
2024-06-12 18:16:20 8 15.7 0.04 168.9 29 61 16 4 1022.69 0 1
2024-06-12 17:46:21 20 18.2 0.1 151.8 294 62 16 4 1022.69 0 1
2024-06-12 17:15:49 19 16 0.095 267.7 291 60 17 3 1022.69 0 1
2024-06-12 16:45:47 18 14.2 0.09 267.7 291 60 17 3 1022.69 0 1
2024-06-12 16:15:47 14 15.1 0.07 305.3 355 61 16 10 1022.69 0 1
2024-06-12 15:45:46 13 14 0.065 261.8 292 59 17 3 1022.69 0 1
2024-06-12 15:15:27 13 14.9 0.065 482.9 344 59 17 10 1023.03 0 1
2024-06-12 14:45:26 13 15.8 0.065 171.1 300 62 16 4 1023.03 0 1
2024-06-12 14:15:25 10 14.3 0.05 632.6 17 58 16 9 1023.37 0 1
2024-06-12 13:43:04 13 14.2 0.065 673.4 276 59 16 4 1023.37 0 1
2024-06-12 13:12:46 11 14.9 0.055 483.7 268 60 15 9 1023.71 0 1
2024-06-12 12:42:45 5 0.5 0.025 407.4 270 63 15 4 1023.71 0 1
2024-06-12 12:12:30 14 16.3 0.07 330.5 259 67 14 6 1023.71 0 1
2024-06-12 11:42:29 17 15.1 0.085 375.5 264 67 14 10 1023.37 0 1
2024-06-12 11:12:27 15 14.8 0.075 334.8 257 72 13 5 1023.71 0 1
2024-06-12 10:42:26 13 14.9 0.065 246.1 264 75 13 7 1023.71 0 1
2024-06-12 10:12:03 17 14 0.085 207.7 257 73 13 6 1023.37 0 1
2024-06-12 09:42:02 15 14.9 0.075 238.8 252 73 13 10 1023.37 0 1
2024-06-12 09:11:43 15 14.1 0.075 163.2 260 77 12 5 1023.37 0 1
2024-06-12 08:41:42 10 14.4 0.05 91.4 271 74 13 8 1023.37 0 1
2024-06-12 08:11:23 13 14.8 0.065 105.4 264 74 12 4 1023.03 0 1
2024-06-12 07:41:22 13 14.2 0.065 63.8 251 75 12 11 1022.69 0 1
2024-06-12 07:11:04 13 13.2 0.065 47.2 240 77 12 11 1022.69 0 1
2024-06-12 06:38:12 18 15.4 0.09 36.7 251 78 11 5 1022.69 0 0
2024-06-12 06:07:50 13 14.4 0.065 16.4 297 79 12 5 1022.35 0 0
2024-06-12 05:36:30 16 13.4 0.08 8.1 262 70 13 4 1022.01 0 0
2024-06-12 05:06:08 13 14.7 0.065 2.3 264 67 13 4 1022.35 0 0
2024-06-12 04:36:07 1 0.2 0.005 0 258 67 14 6 1022.35 0 0
2024-06-12 04:04:23 9 12.6 0.045 0 294 68 14 8 1022.01 0 0
2024-06-12 02:54:23 14 13.2 0.07 0 264 74 13 7 1022.01 0 0
2024-06-12 01:44:27 11 13.9 0.055 0 247 77 13 6 1022.01 0 0
2024-06-12 00:34:27 10 13.2 0.05 0 246 82 13 5 1021.67 0 0
2024-06-11 23:42:21 16 14.3 0.08 0 221 77 13 6 1021.67 0 0
2024-06-11 23:12:20 12 14.2 0.06 0 250 69 14 7 1021.67 0 0
2024-06-11 22:42:19 15 14.3 0.075 0 255 64 14 6 1021.67 0 0
2024-06-11 22:12:14 12 14.9 0.06 0 258 62 15 4 1021.33 0 0
2024-06-11 21:42:13 12 15.5 0.06 0 266 55 16 8 1020.66 0 0
2024-06-11 21:11:54 10 13.6 0.05 0 264 54 16 7 1020.32 0 0
2024-06-11 20:41:53 8 14.2 0.04 2.8 245 56 16 4 1019.98 0 0
2024-06-11 20:11:30 13 12.2 0.065 7.3 262 52 16 2 1019.64 0 0
2024-06-11 19:41:29 15 13.5 0.075 33.7 256 52 17 9 1019.64 0 0
2024-06-11 19:11:06 14 14.9 0.07 81.5 258 54 17 8 1019.64 0 0
2024-06-11 18:41:05 19 14.9 0.095 129.9 264 52 18 3 1019.3 0 0
2024-06-11 18:11:04 10 15.2 0.05 317.9 258 50 18 4 1019.3 0 0
2024-06-11 17:40:38 16 12.9 0.08 227 228 46 19 6 1019.3 0 0
2024-06-11 17:10:00 16 16.6 0.08 507.3 247 50 19 7 1019.3 0 0
2024-06-11 16:39:59 25 14.5 0.125 214.9 255 48 18 9 1019.3 0 0
2024-06-11 16:09:58 9 16.4 0.045 295.5 264 52 18 10 1019.3 0 0
2024-06-11 15:39:26 8 15.1 0.04 346 292 55 18 7 1018.96 0 0
2024-06-11 15:09:05 17 15.4 0.085 402 234 54 18 5 1018.96 0 0
2024-06-11 14:39:04 11 12.2 0.055 531.3 252 55 19 7 1018.63 0 0
2024-06-11 14:09:03 12 14.6 0.06 678 258 54 19 9 1018.29 0 0
2024-06-11 13:38:23 16 15.3 0.08 740.6 240 52 19 16 1018.29 0 0
2024-06-11 13:08:06 12 15 0.06 895.7 164 56 19 23 1017.95 0 0
2024-06-11 12:38:05 2 0.2 0.01 523.2 258 56 19 7 1017.95 0 0
2024-06-11 12:07:50 17 14.4 0.085 987.5 240 58 20 12 1017.27 0 0
2024-06-11 11:37:49 14 14.7 0.07 835.9 253 58 20 8 1017.27 0 0
2024-06-11 11:07:38 18 14.7 0.09 790.5 245 59 20 4 1016.93 0 0
2024-06-11 10:37:37 11 14.8 0.055 608.3 252 61 20 6 1016.93 0 0
2024-06-11 10:07:20 17 15.3 0.085 576.2 270 64 19 8 1016.59 0 0
2024-06-11 09:37:19 19 16.8 0.095 258.3 257 67 19 5 1016.59 0 0
2024-06-11 09:07:04 5 14.2 0.025 228.6 270 68 19 3 1016.26 0 0
2024-06-11 08:37:03 13 14.1 0.065 188.9 258 68 19 10 1015.92 0 0
2024-06-11 08:06:43 13 14 0.065 242.1 90 65 19 10 1015.24 0 0
2024-06-11 07:36:45 8 14.8 0.04 126.7 241 64 18 13 1015.24 0 0
2024-06-11 07:06:41 13 17.1 0.065 90.9 249 63 19 14 1014.9 0 0
2024-06-11 06:36:40 15 15 0.075 87.7 263 62 18 11 1014.22 0 0
2024-06-11 06:06:40 11 13.7 0.055 33.8 263 63 18 4 1013.55 0 0
2024-06-11 05:36:39 15 14.4 0.075 14.5 276 63 18 4 1013.55 0 0
2024-06-11 04:36:10 1 0.2 0.005 0 264 63 18 3 1013.21 0 0
2024-06-11 04:04:22 16 16.8 0.08 0 255 62 18 6 1013.55 0 0
2024-06-11 02:54:21 20 17.2 0.1 0 288 66 18 4 1013.55 0 0
2024-06-11 01:44:21 19 14.9 0.095 0 263 72 18 4 1013.55 0 0
2024-06-11 00:34:20 12 14.4 0.06 0 288 78 17 4 1013.88 0 0
2024-06-10 23:47:31 13 16.4 0.065 0 258 77 18 4 1013.21 0 14
2024-06-10 23:16:50 14 13.8 0.07 0 264 78 18 4 1013.21 0 14
2024-06-10 22:46:49 21 13.7 0.105 0 307 82 17 0 1013.21 0 14
2024-06-10 22:16:48 17 13.9 0.085 0 292 84 17 0 1013.21 0 14
2024-06-10 21:46:35 14 13.9 0.07 0 267 82 17 5 1013.21 0 14
2024-06-10 21:15:49 20 15.9 0.1 0.4 251 86 17 3 1012.87 0 14
2024-06-10 20:45:34 8 11.7 0.04 6.8 233 88 17 3 1012.53 0 14
2024-06-10 20:14:53 11 13.3 0.055 24.3 259 87 18 2 1012.53 0 14
2024-06-10 19:44:52 14 11.9 0.07 57.4 264 86 18 7 1012.53 0 14
2024-06-10 19:14:51 12 15.4 0.06 43.2 276 88 18 4 1012.53 0 14
2024-06-10 18:42:46 11 15 0.055 94.6 267 87 18 4 1012.19 0 14
2024-06-10 18:12:03 16 14.7 0.08 136.1 268 87 18 4 1012.19 0 14
2024-06-10 17:42:02 14 14.7 0.07 161.6 241 89 17 4 1012.19 0 14
2024-06-10 17:11:43 14 14.3 0.07 244.5 293 90 17 2 1012.19 0 14
2024-06-10 16:41:42 14 14.9 0.07 171.5 308 91 17 4 1012.19 0 14
2024-06-10 16:11:05 15 13.2 0.075 211.6 345 93 17 4 1011.51 0 14
2024-06-10 15:41:04 16 14.9 0.08 162.1 330 93 17 9 1011.51 0 14
2024-06-10 15:11:03 13 15.7 0.065 111.9 326 94 18 4 1011.18 2 13
2024-06-10 14:41:03 12 12.2 0.06 102.5 251 93 18 2 1011.18 2 12
2024-06-10 14:10:58 25 14.5 0.125 107.1 248 91 18 2 1011.18 0 11
2024-06-10 13:40:57 19 14.9 0.095 90.6 226 93 18 3 1011.51 0 11
2024-06-10 13:10:52 17 15.9 0.085 90.8 5 90 18 0 1011.18 2 10
2024-06-10 12:40:51 3 0.3 0.015 99.7 6 86 19 0 1011.18 0 10
2024-06-10 12:10:50 10 15.8 0.05 302.9 259 88 20 0 1010.84 0 10
2024-06-10 11:39:47 17 14.9 0.085 212.4 258 91 19 0 1011.18 0 10
2024-06-10 11:09:31 15 12.4 0.075 181.7 258 92 18 0 1011.18 2 10
2024-06-10 10:39:29 19 15 0.095 147.5 3 90 18 3 1010.84 0 9
2024-06-10 10:09:29 17 15 0.085 313.4 12 90 18 0 1011.18 0 9
2024-06-10 09:39:20 12 14.1 0.06 203.5 83 94 17 2 1011.18 0 9
2024-06-10 09:09:03 11 13 0.055 72.4 83 96 17 0 1010.84 0 9
2024-06-10 08:37:53 13 13.2 0.065 43.3 8 96 17 0 1011.18 10 8
2024-06-10 08:07:36 11 13.8 0.055 28.2 72 95 17 3 1010.84 5 4
2024-06-10 07:37:35 18 13.2 0.09 28.2 300 94 17 2 1010.5 2 2
2024-06-10 07:07:34 13 15 0.065 20.5 78 95 17 0 1010.5 0 1
2024-06-10 06:36:37 7 15.1 0.035 12.6 78 95 17 0 1010.84 0 1
2024-06-10 06:06:18 10 14.8 0.05 10.6 78 95 17 0 1010.5 0 1
2024-06-10 05:06:16 11 12.9 0.055 2.4 193 93 17 0 1010.84 0 1
2024-06-10 04:36:16 1 0.1 0.005 0 314 94 17 0 1010.5 0 1
2024-06-10 04:04:12 19 15.3 0.095 0 268 92 17 0 1011.18 0 1
2024-06-10 02:54:32 12 14.8 0.06 0 355 91 17 0 1011.85 0 0
2024-06-10 01:44:23 13 15.7 0.065 0 204 94 17 0 1011.18 0 0
2024-06-10 00:34:23 14 13.6 0.07 0 191 91 17 2 1011.85 0 0
2024-06-09 00:34:27 16 15.8 0.08 0 306 76 20 4 1015.58 0 0
2024-06-07 19:12:30 12 16.8 0.06 79.2 210 63 24 0 1021.33 0 0
2024-06-07 18:42:29 10 16.7 0.05 161.3 146 58 25 2 1021 0 0
2024-06-07 18:12:03 13 14.7 0.065 134.5 108 61 24 3 1021.33 0 0
2024-06-07 17:41:54 14 13.6 0.07 121.6 138 58 24 6 1021.67 0 0
2024-06-07 17:11:15 9 14.9 0.045 308 112 63 25 7 1022.01 0 0
2024-06-07 16:41:14 14 14.8 0.07 271 228 50 26 3 1021.67 0 0
2024-06-07 16:10:54 15 15.4 0.075 260.9 270 49 26 6 1022.01 0 0
2024-06-07 15:40:53 17 14.5 0.085 459.9 252 46 26 8 1022.35 0 0
2024-06-07 15:10:36 20 15.2 0.1 346.7 276 48 26 4 1022.35 0 0
2024-06-07 14:40:35 13 14.2 0.065 950.5 224 45 26 7 1022.01 0 0
2024-06-07 14:10:32 20 16.1 0.1 755.4 268 50 25 7 1022.35 0 0
2024-06-07 13:40:31 11 13.7 0.055 285.2 242 47 26 13 1022.35 0 0
2024-06-07 13:10:08 22 16.2 0.11 895.7 260 47 26 7 1022.69 0 0
2024-06-07 12:40:06 7 0.7 0.035 911.2 234 47 26 9 1022.69 0 0
2024-06-07 12:09:45 16 17.8 0.08 911.5 312 48 26 9 1023.03 0 0
2024-06-07 11:39:44 21 15.1 0.105 912.9 330 52 26 2 1023.03 0 0
2024-06-07 11:09:23 16 15.5 0.08 853.3 254 50 26 4 1022.69 0 0
2024-06-07 10:39:22 17 13.7 0.085 818 288 53 25 9 1023.03 0 0
2024-06-07 10:09:22 17 16.4 0.085 777.5 198 70 24 2 1023.03 0 0
2024-06-07 09:38:21 13 13.8 0.065 652.2 114 71 23 6 1023.03 0 0
2024-06-07 09:08:00 17 14.3 0.085 575.9 78 73 23 4 1023.03 0 0
2024-06-07 08:37:59 13 14.8 0.065 484.9 102 71 22 3 1023.03 0 0
2024-06-07 08:07:40 20 16.2 0.1 400.4 144 71 23 0 1023.03 0 0
2024-06-07 07:37:39 21 15.5 0.105 273.9 66 76 22 0 1023.03 0 0
2024-06-07 07:07:16 14 14.5 0.07 217.2 83 78 20 0 1022.69 0 0
2024-06-07 06:37:16 15 14.5 0.075 126.2 75 84 19 3 1022.69 0 0
2024-06-07 06:07:14 10 14.2 0.05 40.8 300 92 17 0 1022.69 0 0
2024-06-07 05:36:34 9 13.1 0.045 20 312 92 17 0 1022.35 0 0
2024-06-07 05:06:06 14 14.4 0.07 4.3 312 89 18 0 1022.35 0 0
2024-06-07 04:36:05 12 12.5 0.06 0 264 86 18 2 1022.01 0 0
2024-06-07 04:06:04 16 14.5 0.08 0 258 84 18 5 1022.01 0 0
2024-06-07 03:36:32 1 0.1 0.005 0 263 85 18 7 1022.01 0 0
2024-06-07 02:54:24 20 16.9 0.1 0 258 89 18 2 1022.35 0 0
2024-06-07 01:44:23 11 14.6 0.055 0 184 95 17 0 1022.35 0 0
2024-06-07 00:34:22 22 16.2 0.11 0 78 91 18 3 1022.01 0 0
2024-06-06 23:43:58 14 12.8 0.07 0 264 95 17 0 1021.67 0 10
2024-06-06 23:13:23 20 16.3 0.1 0 265 95 17 0 1022.35 0 10
2024-06-06 22:43:22 15 14.6 0.075 0 282 94 18 0 1022.69 0 10
2024-06-06 22:12:58 18 16.7 0.09 0 282 90 18 2 1021.67 0 10
2024-06-06 21:42:57 14 12.9 0.07 0 282 93 18 0 1022.01 0 10
2024-06-06 21:12:56 23 15.4 0.115 0 178 88 20 2 1022.69 29 6
2024-06-06 20:42:55 19 13.2 0.095 5.8 204 75 23 0 1021 0 1
2024-06-06 20:12:22 10 14.8 0.05 2.3 204 75 23 0 1021 0 1
2024-06-06 19:42:21 11 16.4 0.055 16.4 204 69 24 0 1020.66 0 1
2024-06-06 19:11:58 9 15.7 0.045 85.4 178 61 26 2 1020.32 0 1
2024-06-06 18:41:02 16 12.5 0.08 171.7 174 58 26 4 1020.66 0 1
2024-06-06 18:10:27 21 16.3 0.105 209.1 84 61 26 7 1020.66 0 1
2024-06-06 17:40:27 18 16.4 0.09 141.2 120 59 26 5 1021 0 1
2024-06-06 17:10:26 17 14.6 0.085 409.7 168 58 26 11 1021 0 1
2024-06-06 16:40:25 10 13.6 0.05 632.2 140 56 26 13 1021.33 0 1
2024-06-06 16:10:05 16 15.4 0.08 645.9 102 55 27 4 1021.67 0 1
2024-06-06 15:40:04 14 16.1 0.07 613.6 84 60 26 4 1022.01 0 1
2024-06-06 15:09:55 18 12.7 0.09 401.2 156 57 26 4 1022.69 0 1
2024-06-06 14:39:54 20 17.1 0.1 1026.5 84 55 25 5 1022.69 0 1
2024-06-06 14:09:53 13 11.9 0.065 1015.5 132 56 25 2 1023.37 0 1
2024-06-06 13:38:42 7 12.2 0.035 457.9 198 58 25 4 1023.37 0 1
2024-06-06 13:08:23 19 16 0.095 747.6 140 63 25 5 1023.37 0 1
2024-06-06 12:38:22 4 0.4 0.02 566.8 117 65 24 0 1023.37 0 1
2024-06-06 12:08:21 19 14.9 0.095 423.3 91 67 23 4 1023.71 0 1
2024-06-06 11:38:20 13 14.4 0.065 282.4 299 62 24 0 1023.71 0 1
2024-06-06 11:08:15 13 12.7 0.065 521.7 311 63 24 0 1023.37 0 1
2024-06-06 10:38:14 11 14.7 0.055 372.1 324 61 23 4 1023.37 0 1
2024-06-06 10:08:13 10 14.2 0.05 420.5 288 63 23 0 1023.37 0 1
2024-06-06 09:38:12 15 14.6 0.075 366.7 264 68 23 0 1023.37 0 1
2024-06-06 09:08:06 14 14 0.07 561.8 0 68 22 4 1023.37 0 1
2024-06-06 08:38:05 20 15.4 0.1 327.2 270 68 21 5 1023.37 0 1
2024-06-06 08:08:04 8 13.4 0.04 301.1 294 70 21 4 1023.37 0 1
2024-06-06 07:37:16 11 16.3 0.055 182.3 254 79 19 2 1023.03 0 1
2024-06-06 07:06:56 12 13.8 0.06 111.9 223 84 18 0 1022.69 0 1
2024-06-06 06:36:54 11 14.5 0.055 62.6 79 90 17 0 1022.35 0 1
2024-06-06 06:06:42 12 14.3 0.06 17.5 79 88 17 0 1022.01 0 1
2024-06-06 05:36:40 15 14.2 0.075 7.7 216 83 17 4 1021.67 0 1
2024-06-06 05:06:39 18 15.3 0.09 1.3 258 81 18 5 1021.67 2 0
2024-06-06 04:36:19 1 0.1 0.005 0 257 78 19 5 1021.67 0 0
2024-06-06 04:04:21 18 15.2 0.09 0 260 64 21 12 1021.67 0 0
2024-06-06 02:54:23 13 13.1 0.065 0 308 79 19 0 1021 0 0
2024-06-06 01:44:34 16 13.5 0.08 0 330 72 19 0 1020.66 0 0
2024-06-06 00:34:34 14 15.5 0.07 0 272 65 21 3 1020.66 0 0
2024-06-05 23:45:05 14 13.6 0.07 0 252 78 19 0 1019.98 0 0
2024-06-05 23:14:46 12 15 0.06 0 252 78 19 0 1019.98 0 0
2024-06-05 22:44:45 18 15.2 0.09 0 252 75 20 0 1019.98 0 0
2024-06-05 22:14:31 12 14.2 0.06 0 252 70 21 0 1019.98 0 0
2024-06-05 21:44:30 11 14.8 0.055 0 252 61 22 0 1019.64 0 0
2024-06-05 21:14:29 12 14.3 0.06 0 224 62 22 2 1019.3 0 0
2024-06-05 20:44:28 13 16.5 0.065 4.8 210 65 22 5 1018.96 0 0
2024-06-05 20:14:05 15 15.6 0.075 20.5 210 68 23 3 1018.96 0 0
2024-06-05 19:44:04 21 19.4 0.105 41.5 168 61 24 2 1018.96 0 0
2024-06-05 19:14:03 12 16.6 0.06 75.1 140 57 25 2 1018.63 0 0
2024-06-05 18:44:02 19 13.8 0.095 152.3 114 55 26 0 1018.63 0 0
2024-06-05 18:13:44 10 15.4 0.05 78.6 135 54 25 2 1018.63 0 0
2024-06-05 17:43:43 16 16 0.08 122.2 138 52 25 6 1018.63 0 0
2024-06-05 17:13:22 19 14 0.095 441.8 162 47 26 9 1018.96 0 0
2024-06-05 16:43:21 14 16 0.07 560.3 102 49 26 3 1018.96 0 0
2024-06-05 16:13:20 17 14.9 0.085 222.5 138 48 26 5 1018.96 0 0
2024-06-05 15:43:20 13 15.1 0.065 804 108 45 26 2 1019.3 0 0
2024-06-05 15:13:04 18 15.1 0.09 905.2 96 47 25 3 1019.3 0 0
2024-06-05 14:43:03 10 12.5 0.05 797.4 124 39 26 4 1019.64 0 0
2024-06-05 14:12:40 22 16.2 0.11 875.4 307 40 26 4 1019.64 0 0
2024-06-05 13:42:39 19 14.9 0.095 385.5 324 39 26 3 1019.98 0 0
2024-06-05 13:12:38 18 15 0.09 923.8 270 38 26 3 1019.98 0 0
2024-06-05 12:42:01 2 0.2 0.01 910.7 306 40 25 9 1019.98 0 0
2024-06-05 12:11:42 13 15.8 0.065 922.7 300 42 25 3 1019.98 0 0
2024-06-05 11:41:41 17 13.9 0.085 884.8 292 48 24 5 1020.32 0 0
2024-06-05 11:11:40 11 13.9 0.055 660 80 54 24 0 1019.98 0 0
2024-06-05 10:41:35 22 14.2 0.11 247.9 144 61 22 4 1019.98 0 0
2024-06-05 10:11:17 16 14.9 0.08 734.2 77 63 22 2 1019.98 0 0
2024-06-05 09:41:02 15 13 0.075 696.9 101 60 23 5 1019.98 0 0
2024-06-05 09:10:39 12 14.8 0.06 583.3 60 69 21 4 1019.98 0 0
2024-06-05 08:40:38 19 15 0.095 488.4 113 71 19 3 1020.32 0 0
2024-06-05 08:10:37 13 14.8 0.065 386 128 69 20 3 1019.98 0 0
2024-06-05 07:40:03 15 13 0.075 289.7 247 72 19 0 1019.98 0 0
2024-06-05 07:09:45 14 14.5 0.07 192.9 181 75 18 0 1019.64 0 0
2024-06-05 06:37:10 19 14.4 0.095 101 274 80 17 0 1019.64 0 0
2024-06-05 06:06:47 16 14.9 0.08 49.8 274 96 12 0 1019.64 0 0
2024-06-05 05:36:47 15 14.8 0.075 26.4 274 96 11 0 1019.3 0 0
2024-06-05 05:06:09 16 13.5 0.08 7.8 274 96 11 0 1019.3 0 0
2024-06-05 04:36:09 1 0.1 0.005 0 274 96 11 0 1018.96 0 0
2024-06-05 04:05:00 22 14.7 0.11 0 274 96 12 0 1018.96 0 0
2024-06-05 02:55:00 11 15.2 0.055 0 274 95 12 0 1018.96 0 0
2024-06-05 01:45:02 18 13.8 0.09 0 274 94 13 0 1019.3 0 0
2024-06-05 00:35:06 13 15.6 0.065 0 274 93 13 0 1018.96 0 0
2024-06-04 23:48:52 11 14.5 0.055 0 274 93 13 0 1019.3 0 15
2024-06-04 23:18:29 15 13.8 0.075 0 274 91 14 0 1018.96 0 15
2024-06-04 22:48:28 10 13 0.05 0 274 89 14 0 1019.3 0 15
2024-06-04 22:18:27 12 12.8 0.06 0 274 87 15 0 1019.3 0 15
2024-06-04 21:48:26 13 14.6 0.065 0 274 86 16 0 1019.3 0 15
2024-06-04 21:18:14 12 14 0.06 0 274 84 16 0 1018.96 0 15
2024-06-04 20:48:14 14 14.7 0.07 3.7 293 76 18 0 1018.96 0 15
2024-06-04 20:17:51 18 13.4 0.09 17.5 293 74 18 0 1018.96 0 15
2024-06-04 19:47:50 12 14.1 0.06 39.7 300 70 19 0 1018.96 0 15
2024-06-04 19:17:49 11 15.2 0.055 63 4 63 20 2 1018.96 0 15
2024-06-04 18:47:48 16 14.5 0.08 140.6 294 62 21 3 1018.96 0 15
2024-06-04 18:17:47 12 14.8 0.06 222.2 264 60 20 3 1018.96 0 15
2024-06-04 17:47:02 15 15.4 0.075 145 324 63 20 10 1019.3 0 15
2024-06-04 17:16:21 17 16.7 0.085 151.5 0 66 20 2 1019.3 0 15
2024-06-04 16:46:20 12 15.5 0.06 327.5 1 66 20 8 1019.64 0 15
2024-06-04 16:16:02 22 16.5 0.11 294.6 292 67 19 4 1019.98 0 15
2024-06-04 15:45:21 12 15.1 0.06 365.1 100 69 19 0 1019.98 0 15
2024-06-04 15:14:46 12 15 0.06 160.1 318 71 18 4 1020.32 0 15
2024-06-04 14:44:45 16 14.6 0.08 379.7 318 68 19 7 1020.32 0 15
2024-06-04 14:14:44 11 13.8 0.055 322.5 318 68 19 4 1020.32 0 15
2024-06-04 13:43:04 12 14.6 0.06 744 27 65 19 5 1020.32 0 15
2024-06-04 13:12:25 13 14.1 0.065 284.7 270 69 18 6 1020.32 0 15
2024-06-04 12:42:24 9 0.9 0.045 191.8 264 74 18 4 1020.66 0 15
2024-06-04 12:11:59 17 13.7 0.085 225.2 276 75 17 0 1020.32 0 15
2024-06-04 11:41:58 13 13.5 0.065 485.3 264 73 17 9 1020.32 0 15
2024-06-04 11:11:57 12 14.7 0.06 606.7 324 75 16 15 1020.32 0 15
2024-06-04 10:41:56 19 14.1 0.095 434.3 304 77 16 2 1020.32 0 15
2024-06-04 10:11:41 16 13.2 0.08 943 264 77 16 2 1020.32 0 15
2024-06-04 09:39:36 17 13.9 0.085 271.4 222 80 16 3 1020.66 0 15
2024-06-04 09:09:01 9 13.2 0.045 181.2 318 81 15 6 1020.66 0 15
2024-06-04 08:39:00 10 16.3 0.05 203.2 307 83 15 11 1020.32 0 15
2024-06-04 08:08:43 14 15.1 0.07 135.8 241 85 14 9 1019.98 0 15
2024-06-04 07:38:42 10 14.2 0.05 103 300 88 15 6 1019.64 0 15
2024-06-04 07:08:19 13 13.9 0.065 115.6 312 86 15 10 1019.3 0 15
2024-06-04 06:38:18 12 12.9 0.06 82 9 88 15 7 1018.96 0 15
2024-06-04 06:07:59 16 14.7 0.08 35.8 270 90 15 7 1018.96 0 15
2024-06-04 05:37:58 8 14.5 0.04 14.9 252 90 15 7 1018.63 0 15
2024-06-04 05:07:57 11 14.3 0.055 5.2 282 91 15 9 1018.63 0 15
2024-06-04 04:37:57 1 0.1 0.005 0 282 92 15 9 1018.63 0 15
2024-06-04 04:04:10 18 16.9 0.09 0 20 94 15 4 1018.63 2 15
2024-06-04 02:54:17 17 15.2 0.085 0 264 94 15 7 1018.29 2 7
2024-06-04 01:44:17 16 14.2 0.08 0 257 92 16 9 1017.95 0 2
2024-06-04 00:34:43 20 16.3 0.1 0 248 90 16 9 1017.95 2 1
2024-06-03 23:45:02 16 12.7 0.08 0 252 87 16 10 1017.95 0 14
2024-06-03 23:14:27 17 13.2 0.085 0 241 89 16 9 1017.95 0 14
2024-06-03 22:44:26 14 15.9 0.07 0 258 89 16 11 1017.95 0 14
2024-06-03 22:14:03 15 15.6 0.075 0 246 89 16 7 1017.95 0 14
2024-06-03 21:44:02 11 13.3 0.055 0 271 91 15 7 1017.95 0 14
2024-06-03 21:14:01 19 14.5 0.095 0 258 91 15 9 1017.95 0 14
2024-06-03 20:43:25 15 13.6 0.075 1.8 269 92 15 7 1017.61 0 14
2024-06-03 20:12:44 14 16.6 0.07 6 270 93 15 10 1017.61 2 14
2024-06-03 19:42:43 16 15.5 0.08 5.9 259 93 16 3 1017.95 5 13
2024-06-03 19:12:25 16 12.9 0.08 5.5 330 94 16 3 1018.29 5 11
2024-06-03 18:42:24 15 16 0.075 7.4 324 93 17 0 1018.29 5 9
2024-06-03 18:12:14 13 14.2 0.065 11.5 312 89 18 3 1017.95 19 5
2024-06-03 17:42:13 15 15.1 0.075 40.8 270 72 20 4 1017.27 0 0
2024-06-03 17:12:12 19 14.6 0.095 178.1 229 67 21 6 1017.27 0 0
2024-06-03 16:42:12 14 16.1 0.07 339.5 288 72 21 2 1017.61 0 0
2024-06-03 16:11:48 20 14 0.1 318.3 218 73 21 3 1017.61 0 0
2024-06-03 15:41:47 11 16.9 0.055 143.8 210 68 21 0 1017.95 0 0
2024-06-03 15:11:28 11 15.1 0.055 494.5 90 66 22 5 1017.95 0 0
2024-06-03 14:41:28 11 15.8 0.055 246.4 146 68 21 4 1018.29 0 0
2024-06-03 14:11:26 14 13.8 0.07 181 82 68 22 2 1018.29 0 0
2024-06-03 13:41:05 12 12.8 0.06 507.8 312 64 23 3 1018.63 0 0
2024-06-03 13:10:49 24 15.8 0.12 231.3 74 68 21 4 1018.96 0 0
2024-06-03 12:40:56 5 0.5 0.025 186.1 114 66 22 0 1018.96 0 0
2024-06-03 12:10:47 13 14.4 0.065 459.4 98 64 22 3 1019.3 0 0
2024-06-03 11:38:20 14 16.3 0.07 288.5 48 66 22 3 1019.98 0 0
2024-06-03 11:07:57 15 16.9 0.075 329.9 299 66 22 8 1019.64 0 0
2024-06-03 10:37:56 12 13.9 0.06 297.7 325 68 21 3 1019.98 0 0
2024-06-03 10:07:37 17 16.4 0.085 341.2 54 67 22 0 1019.98 0 0
2024-06-03 09:37:36 14 14.3 0.07 844.4 342 67 21 3 1019.98 0 0
2024-06-03 09:07:35 10 13.2 0.05 286.2 270 72 20 4 1020.32 0 0
2024-06-03 08:37:34 13 14.9 0.065 221.2 311 76 19 2 1019.98 0 0
2024-06-03 08:07:29 21 15 0.105 259.1 318 78 18 4 1019.98 0 0
2024-06-03 07:37:29 15 14.3 0.075 404.8 324 77 19 8 1019.98 0 0
2024-06-03 07:07:14 21 15.6 0.105 199.2 358 81 18 3 1019.64 0 0
2024-06-03 06:37:11 16 14.3 0.08 125.9 299 81 18 2 1019.98 0 0
2024-06-03 05:06:02 14 14.1 0.07 3.5 270 83 17 0 1019.98 0 0
2024-06-03 04:36:02 1 0.1 0.005 0 274 82 17 3 1019.98 0 0
2024-06-03 04:04:29 14 16.1 0.07 0 270 81 17 0 1019.98 0 0
2024-06-03 02:54:20 16 13.4 0.08 0 270 79 18 4 1020.32 0 0
2024-06-03 01:44:20 11 14.1 0.055 0 282 75 18 5 1020.32 0 0
2024-06-03 00:34:21 19 15.8 0.095 0 253 74 18 4 1020.66 0 0
2024-06-02 04:35:58 1 0.1 0.005 0 224 81 15 5 1018.29 0 0
2024-06-02 04:04:12 14 16 0.07 0 294 81 15 6 1018.29 0 0
2024-06-02 02:54:23 13 15 0.065 0 280 81 15 9 1018.29 0 0
2024-06-02 01:44:23 22 16.4 0.11 0 259 78 15 7 1017.95 0 0
2024-06-02 00:34:24 10 13.7 0.05 0 259 78 15 5 1017.95 0 0
2024-06-01 05:38:39 6 15.5 0.03 18.9 253 81 14 5 1012.53 0 0
2024-06-01 05:06:10 17 15.5 0.085 2.3 255 83 14 7 1012.87 0 0
2024-06-01 04:36:10 1 0.2 0.005 0 270 81 14 8 1012.53 0 0
2024-06-01 04:04:44 12 11.9 0.06 0 265 84 14 3 1012.19 0 0
2024-06-01 02:54:18 17 15.9 0.085 0 300 89 13 2 1011.85 0 0
2024-06-01 01:44:21 18 15.7 0.09 0 258 90 14 0 1012.19 0 0
2024-06-01 00:34:20 10 12 0.05 0 266 92 14 7 1011.85 0 0
2024-05-31 01:44:18 19 15.1 0.095 0 286 83 16 0 1010.84 0 0
2024-05-31 00:34:18 11 15.1 0.055 0 153 93 13 0 1010.84 0 0
2024-05-30 09:09:06 9 16.3 0.045 608.9 107 58 20 3 1013.21 0 0
2024-05-30 08:37:20 23 14.8 0.115 414.8 92 53 20 2 1013.21 0 0
2024-05-30 08:07:01 9 14.2 0.045 336.6 97 61 18 3 1013.55 0 0
2024-05-30 07:37:00 13 13.5 0.065 309 86 59 17 0 1013.55 0 0
2024-05-30 07:06:46 14 16.9 0.07 125.5 85 64 17 0 1013.88 0 0
2024-05-30 06:36:45 8 13.3 0.04 137.6 120 67 16 0 1014.22 0 0
2024-05-30 06:06:44 13 12.6 0.065 65.6 120 76 13 0 1013.88 0 0
2024-05-30 05:36:39 12 15 0.06 22.9 120 75 13 0 1014.22 0 0
2024-05-30 05:06:22 8 14.7 0.04 5.8 135 80 13 0 1013.88 0 0
2024-05-30 04:36:21 1 0.1 0.005 0 135 76 13 0 1014.22 0 0
2024-05-30 04:04:18 9 14.4 0.045 0 263 55 17 4 1014.56 0 0
2024-05-30 02:54:17 17 14.8 0.085 0 262 53 17 4 1015.24 0 0
2024-05-30 01:44:18 9 14.9 0.045 0 260 54 17 4 1015.58 0 0
2024-05-30 00:34:19 17 15.5 0.085 0 270 55 17 5 1016.26 0 0
2024-05-29 22:14:19 14 13.7 0.07 0 258 55 18 5 1017.27 0 0
2024-05-29 21:44:18 13 15 0.065 0 270 55 18 4 1017.27 0 0
2024-05-29 21:14:17 12 15.8 0.06 0 280 54 18 3 1017.27 0 0
2024-05-29 20:44:09 10 15.2 0.05 3.7 282 52 18 4 1016.93 0 0
2024-05-29 20:13:34 14 15.2 0.07 17.5 324 49 19 2 1016.93 0 0
2024-05-29 19:43:33 15 15.4 0.075 29.2 324 44 21 0 1016.93 0 0
2024-05-29 19:13:16 13 14.5 0.065 58 324 38 22 4 1016.93 0 0
2024-05-29 18:43:15 20 17.6 0.1 145.3 330 37 23 2 1016.93 0 0
2024-05-29 18:13:14 12 15.8 0.06 81.8 4 37 23 6 1016.93 0 0
2024-05-29 17:43:13 17 15.4 0.085 80.1 276 37 23 2 1017.27 0 0
2024-05-29 17:12:58 19 16.3 0.095 260.2 299 38 23 3 1017.61 0 0
2024-05-29 16:42:57 12 15.1 0.06 507 5 37 23 6 1017.61 0 0
2024-05-29 16:12:56 16 14.5 0.08 593.7 270 38 23 4 1018.29 0 0
2024-05-29 15:42:56 11 15.6 0.055 667.2 336 38 23 3 1018.63 0 0
2024-05-29 15:12:28 14 14.7 0.07 694.8 270 38 23 4 1018.96 0 0
2024-05-29 14:42:27 14 13.8 0.07 766.4 310 41 22 5 1019.3 0 0
2024-05-29 14:12:26 17 15.2 0.085 524.1 8 40 22 7 1019.98 0 0
2024-05-29 13:41:29 15 14.4 0.075 1073.7 312 39 23 6 1019.98 0 0
2024-05-29 13:11:13 9 13.8 0.045 1077.2 318 38 22 9 1020.66 0 0
2024-05-29 12:41:12 5 0.5 0.025 907.9 270 41 21 8 1020.66 0 0
2024-05-29 12:11:11 15 14.9 0.075 895.3 18 39 20 7 1021.33 0 0
2024-05-29 11:40:53 9 13.5 0.045 912.9 287 44 20 4 1021.67 0 0
2024-05-29 11:10:32 14 16.8 0.07 843.1 353 46 20 10 1021.67 0 0
2024-05-29 10:40:31 14 15.4 0.07 777.5 7 48 19 12 1022.01 0 0
2024-05-29 10:10:29 17 15.3 0.085 735.5 330 50 19 16 1022.35 0 0
2024-05-29 09:40:28 17 14.2 0.085 659.4 48 53 19 8 1022.69 0 0
2024-05-29 09:10:27 15 16.1 0.075 635.5 246 57 18 4 1022.69 0 0
2024-05-29 08:39:15 10 15 0.05 608.5 282 57 18 5 1022.69 0 0
2024-05-29 08:08:52 14 14.7 0.07 524.1 270 58 18 5 1022.69 0 0
2024-05-29 07:37:21 15 11.7 0.075 291.7 264 63 17 4 1022.69 0 0
2024-05-29 07:06:58 11 14.6 0.055 91.2 259 65 16 7 1022.69 0 0
2024-05-29 06:36:57 10 13.4 0.05 119.1 260 67 16 8 1022.69 0 0
2024-05-29 06:06:33 7 12.1 0.035 45.4 263 67 15 11 1022.35 0 0
2024-05-29 05:36:10 13 16.4 0.065 29.2 240 67 15 13 1022.35 0 0
2024-05-29 05:06:09 14 15.5 0.07 6.8 242 67 15 5 1022.35 0 0
2024-05-29 04:36:08 1 0.1 0.005 0 259 68 15 8 1022.69 0 0
2024-05-29 04:04:35 16 15.5 0.08 0 251 68 15 6 1023.03 0 0
2024-05-29 02:54:38 9 13.6 0.045 0 276 68 15 12 1023.37 0 0
2024-05-29 01:44:39 12 13.5 0.06 0 258 70 15 14 1023.71 0 0
2024-05-29 00:34:41 16 15.8 0.08 0 262 72 15 7 1024.04 0 0
2024-05-28 23:44:57 19 15 0.095 0 254 73 15 7 1024.04 0 0
2024-05-28 23:14:56 21 15.7 0.105 0 253 73 15 6 1024.04 0 0
2024-05-28 22:44:56 7 13.5 0.035 0 265 71 15 9 1024.04 0 0
2024-05-28 22:14:38 18 15.5 0.09 0 292 70 15 8 1024.04 0 0
2024-05-28 21:44:36 17 14 0.085 0 258 71 15 7 1024.04 0 0
2024-05-28 21:14:26 11 16.1 0.055 0 276 70 15 6 1023.37 0 0
2024-05-28 20:44:24 17 15 0.085 2.6 294 70 15 0 1023.37 0 0
2024-05-28 20:13:47 13 14.4 0.065 14.1 257 72 15 3 1023.03 0 0
2024-05-28 19:43:46 7 13.7 0.035 32 264 71 15 3 1023.03 0 0
2024-05-28 19:13:45 16 13.7 0.08 40.9 276 72 15 12 1023.03 0 0
2024-05-28 18:43:44 21 14.4 0.105 61.3 256 72 16 5 1023.03 0 0
2024-05-28 18:13:19 9 15.4 0.045 98.6 259 71 16 8 1023.03 0 0
2024-05-28 17:43:02 18 16.1 0.09 148 204 71 16 9 1023.03 0 0
2024-05-28 17:12:28 16 13.9 0.08 217.8 287 70 17 13 1022.69 0 0
2024-05-28 16:42:27 13 17 0.065 472.3 234 70 17 13 1022.69 0 0
2024-05-28 16:12:26 13 14.7 0.065 572.1 253 68 17 18 1022.35 0 0
2024-05-28 15:39:46 13 15.3 0.065 521.6 243 68 17 9 1022.69 0 0
2024-05-28 15:09:23 13 14.4 0.065 760.2 300 66 18 10 1022.69 0 0
2024-05-28 14:39:22 9 12.9 0.045 804.7 274 66 19 11 1022.69 0 0
2024-05-28 14:08:59 15 15.4 0.075 839.7 255 69 19 10 1022.35 0 0
2024-05-28 13:08:55 5 15.3 0.025 955.7 264 61 21 5 1022.35 0 0
2024-05-28 12:38:55 4 0.4 0.02 470.3 240 61 21 8 1022.35 0 0
2024-05-28 12:08:53 17 17.6 0.085 901.6 258 60 21 8 1022.35 0 0
2024-05-28 11:38:52 17 14.6 0.085 510.2 264 62 21 5 1022.35 0 0
2024-05-28 11:08:47 13 16.3 0.065 956.2 270 60 21 10 1022.69 0 0
2024-05-28 10:38:46 12 15.1 0.06 800.4 270 61 22 5 1022.35 0 0
2024-05-28 10:08:27 15 13.9 0.075 318.9 276 63 21 5 1022.35 0 0
2024-05-28 09:38:26 14 12.4 0.07 301.8 235 66 20 3 1022.01 0 0
2024-05-28 09:08:25 10 17.3 0.05 322.1 246 62 22 8 1022.01 0 0
2024-05-28 08:36:59 15 16.5 0.075 521 204 63 21 3 1021.67 0 0
2024-05-28 08:06:40 12 14.4 0.06 288.1 41 69 20 0 1021.33 0 0
2024-05-28 07:36:39 17 14.6 0.085 270.7 359 66 20 0 1021 0 0
2024-05-28 07:06:38 23 17.1 0.115 114.6 239 73 18 4 1021 0 0
2024-05-28 06:36:37 11 14.1 0.055 59.9 308 82 14 0 1021 0 0
2024-05-28 06:06:18 14 14.7 0.07 36.1 47 87 13 0 1021 0 0
2024-05-28 05:36:16 13 16 0.065 22.8 354 88 12 0 1020.66 0 0
2024-05-28 05:05:57 9 14 0.045 4.9 192 91 12 0 1020.32 0 0
2024-05-28 04:35:57 1 0.1 0.005 0 192 90 12 0 1020.32 0 0
2024-05-28 04:04:11 17 17.6 0.085 0 192 89 12 0 1020.32 0 0
2024-05-28 02:54:25 16 14.7 0.08 0 192 88 12 0 1020.66 0 0
2024-05-28 01:44:22 17 16.3 0.085 0 192 86 13 0 1020.66 0 0
2024-05-28 00:34:23 18 15.6 0.09 0 192 79 15 0 1021.33 0 0
2024-05-27 23:44:02 16 15.3 0.08 0 192 75 16 0 1021.67 0 0
2024-05-27 22:44:01 14 14.8 0.07 0 200 73 17 0 1021.67 0 0
2024-05-27 22:13:42 25 17 0.125 0 205 69 18 0 1021.67 0 0
2024-05-27 21:43:42 13 13.9 0.065 0 205 69 18 2 1021.67 0 0
2024-05-27 21:13:25 14 16.4 0.07 0 205 69 18 2 1021.33 0 0
2024-05-27 20:43:24 4 13.7 0.02 2.8 204 65 19 3 1021.33 0 0
2024-05-27 20:13:23 15 12.9 0.075 16.3 204 60 20 3 1021.33 0 0
2024-05-27 19:43:22 18 16.8 0.09 40.8 204 50 22 0 1021.67 0 0
2024-05-27 19:13:21 15 14.1 0.075 75.4 125 43 23 4 1021.67 0 0
2024-05-27 18:43:20 15 14.2 0.075 113.5 120 42 24 4 1021.67 0 0
2024-05-27 18:13:15 23 16.3 0.115 131.5 91 40 24 3 1021.67 0 0
2024-05-27 17:43:04 9 14.7 0.045 148.5 132 37 25 4 1021.67 0 0
2024-05-27 17:12:27 13 16.6 0.065 182.3 126 34 25 6 1022.01 0 0
2024-05-27 16:42:26 22 15.4 0.11 461.8 190 35 26 5 1022.35 0 0
2024-05-27 16:12:07 15 12.9 0.075 415.2 105 36 25 8 1022.69 0 0
2024-05-27 15:42:06 14 14 0.07 368.4 114 50 25 7 1022.69 0 0
2024-05-27 15:11:47 16 15.1 0.08 576.2 97 53 25 6 1023.03 0 0
2024-05-27 14:41:46 12 11.5 0.06 243.4 114 56 24 7 1023.03 0 0
2024-05-27 14:11:43 15 12.4 0.075 189.2 145 45 25 4 1023.37 0 0
2024-05-27 13:41:42 13 13 0.065 906.9 132 40 26 10 1023.71 0 0
2024-05-27 13:11:41 8 13.8 0.04 523.5 150 53 25 7 1023.71 0 0
2024-05-27 12:41:02 5 0.5 0.025 727.8 108 51 25 4 1024.04 0 0
2024-05-27 12:10:45 21 14.2 0.105 878.6 162 51 25 5 1024.38 0 0
2024-05-27 11:40:44 16 13.5 0.08 856.7 180 54 24 3 1024.38 0 0
2024-05-27 11:10:36 18 15 0.09 811.4 96 55 24 5 1024.72 0 0
2024-05-27 10:40:35 13 14.5 0.065 779.7 180 57 23 5 1024.72 0 0
2024-05-27 10:10:16 17 14.7 0.085 727.2 168 64 22 2 1025.06 0 0
2024-05-27 09:40:15 12 12.7 0.06 647.8 106 66 22 7 1025.06 0 0
2024-05-27 09:10:08 14 15.1 0.07 553.1 178 68 20 5 1025.4 0 0
2024-05-27 08:37:49 15 15.5 0.075 438.9 132 65 20 7 1025.4 0 0
2024-05-27 08:07:27 12 12.2 0.06 367 185 64 19 5 1025.06 0 0
2024-05-27 07:37:26 14 13.6 0.07 273.8 66 76 18 2 1025.06 0 0
2024-05-27 07:07:25 9 14.5 0.045 177.5 158 80 17 4 1025.06 0 0
2024-05-27 06:37:13 13 18.7 0.065 108 106 82 17 4 1024.72 0 0
2024-05-27 06:06:18 10 13.6 0.05 46.9 223 83 15 3 1024.38 0 0
2024-05-27 05:06:11 14 13.9 0.07 5.7 200 95 11 0 1024.72 0 0
2024-05-27 04:36:10 1 0.1 0.005 0 200 95 11 0 1025.06 0 0
2024-05-27 04:04:18 17 14.2 0.085 0 200 95 12 0 1024.72 0 0
2024-05-27 02:54:18 14 13.5 0.07 0 200 94 12 0 1024.72 0 0
2024-05-27 01:44:20 21 16.5 0.105 0 200 91 13 0 1025.06 0 0
2024-05-27 00:34:21 12 15 0.06 0 151 85 14 0 1025.06 0 0
2024-05-25 01:44:29 20 14 0.1 0 200 97 12 0 1023.37 0 0
2024-05-25 00:34:33 9 13.3 0.045 0 200 97 12 0 1023.71 0 0
2024-05-24 12:09:45 18 15.8 0.09 732.3 288 72 19 2 1023.71 0 4
2024-05-24 11:39:44 16 16.5 0.08 405.8 298 77 18 4 1024.04 0 4
2024-05-24 11:09:22 19 14.6 0.095 384.6 294 79 18 4 1024.04 0 4
2024-05-24 10:39:21 14 15.2 0.07 217 252 82 17 0 1024.04 0 4
2024-05-24 10:09:04 18 15.7 0.09 201.5 209 86 17 0 1023.71 0 4
2024-05-24 09:39:03 21 17.4 0.105 194.1 282 79 18 2 1023.37 0 4
2024-05-24 09:08:44 13 15.3 0.065 237.3 230 83 17 5 1023.37 0 4
2024-05-24 08:38:43 12 13.3 0.06 479.1 242 86 16 4 1023.37 0 4
2024-05-24 08:08:42 13 15.8 0.065 175.7 260 90 15 3 1022.69 0 4
2024-05-24 07:37:07 11 14.3 0.055 67.4 288 89 15 7 1022.35 0 3
2024-05-24 07:06:50 15 16.4 0.075 121.9 256 89 15 7 1022.69 0 3
2024-05-24 06:36:39 11 15.2 0.055 56.6 252 91 15 4 1022.35 0 3
2024-05-24 06:06:16 14 16.2 0.07 11.3 320 92 15 0 1022.35 10 3
2024-05-24 05:36:15 14 14.8 0.07 4 217 87 15 0 1022.35 0 0
2024-05-24 05:06:14 15 15.5 0.075 0.7 6 81 16 0 1022.01 0 0
2024-05-24 04:36:14 1 0.1 0.005 0 330 79 16 0 1022.01 0 0
2024-05-24 04:04:21 15 14.1 0.075 0 285 79 16 0 1021.33 0 0
2024-05-24 02:54:24 20 15.2 0.1 0 200 76 16 0 1021.33 0 0
2024-05-24 01:44:25 22 17.6 0.11 0 200 70 17 0 1021.33 0 0
2024-05-24 00:34:27 11 14.6 0.055 0 324 64 18 3 1021 0 0
2024-05-23 23:43:48 14 16.3 0.07 0 246 65 18 6 1021 0 0
2024-05-23 23:13:25 16 16.1 0.08 0 267 63 19 7 1021.33 0 0
2024-05-23 22:43:24 11 12.3 0.055 0 270 66 19 6 1021.33 0 0
2024-05-23 22:13:07 12 14.5 0.06 0 318 62 20 0 1021.33 0 0
2024-05-23 21:43:06 14 14.5 0.07 0 217 54 20 0 1021 0 0
2024-05-23 21:13:05 18 15.1 0.09 0 234 54 21 5 1020.66 0 0
2024-05-23 20:43:04 11 14 0.055 1.5 222 60 20 5 1020.32 0 0
2024-05-23 20:12:49 8 13.3 0.04 8.8 195 62 21 2 1019.98 0 0
2024-05-23 19:42:50 15 15.7 0.075 29.6 150 54 22 2 1019.98 0 0
2024-05-23 19:12:47 18 16 0.09 29.5 150 51 22 3 1019.98 0 0
2024-05-23 18:42:46 13 11.5 0.065 58.2 181 49 23 2 1019.64 0 0
2024-05-23 18:12:43 10 13.4 0.05 125 75 45 23 3 1019.3 0 0
2024-05-23 17:42:41 20 16.1 0.1 123.7 288 40 24 0 1019.3 0 0
2024-05-23 17:12:19 17 16.5 0.085 194.2 60 40 24 0 1019.64 0 0
2024-05-23 16:41:44 20 16 0.1 332 294 38 24 0 1019.64 0 0
2024-05-23 16:11:23 10 14.7 0.05 321.8 276 40 24 4 1019.98 0 0
2024-05-23 15:41:22 13 15.8 0.065 527.3 264 45 24 5 1019.64 0 0
2024-05-23 15:11:15 15 15.9 0.075 627.6 293 48 23 0 1020.32 0 0
2024-05-23 14:41:14 13 14.2 0.065 704.9 354 39 24 2 1020.32 0 0
2024-05-23 14:10:55 12 13.3 0.06 282.9 330 40 23 3 1020.66 0 0
2024-05-23 13:40:54 10 13.9 0.05 872.3 336 41 24 3 1020.66 0 0
2024-05-23 13:10:48 6 13.3 0.03 891.5 354 40 23 11 1021 0 0
2024-05-23 12:40:47 2 0.2 0.01 923.6 330 46 23 3 1021 0 0
2024-05-23 12:10:28 24 16.9 0.12 889.2 18 47 22 5 1021 0 0
2024-05-23 11:40:27 13 14.3 0.065 892.9 270 50 22 4 1021.33 0 0
2024-05-23 11:10:25 8 14.1 0.04 713.5 5 51 21 3 1021 0 0
2024-05-23 10:40:24 12 14.6 0.06 475.7 261 53 21 5 1021.33 0 0
2024-05-23 10:10:11 17 16.5 0.085 721.2 332 55 20 4 1021 0 0
2024-05-23 09:40:10 11 13.8 0.055 241.9 258 56 20 7 1021 0 0
2024-05-23 09:09:47 8 12.9 0.04 576.1 318 58 20 4 1021.33 0 0
2024-05-23 08:39:45 13 12.8 0.065 459.9 274 65 18 3 1021.67 0 0
2024-05-23 08:09:26 12 15.6 0.06 351.7 269 66 18 3 1021.33 0 0
2024-05-23 07:37:08 19 14.9 0.095 148.6 243 66 18 4 1021 0 0
2024-05-23 07:06:45 14 13.8 0.07 116.8 306 66 17 4 1020.66 0 0
2024-05-23 06:36:44 14 16 0.07 68.6 300 67 17 4 1020.32 0 0
2024-05-23 06:06:21 17 15.3 0.085 32.8 254 65 17 12 1019.98 0 0
2024-05-23 05:36:20 14 12.8 0.07 16.7 248 65 17 5 1019.98 0 0
2024-05-23 05:06:19 12 16.2 0.06 3.6 263 65 17 8 1019.64 0 0
2024-05-23 04:36:18 1 0.1 0.005 0 276 66 17 4 1019.64 0 0
2024-05-23 04:04:13 11 12.8 0.055 0 254 66 17 8 1019.3 0 0
2024-05-23 02:54:15 18 13.6 0.09 0 254 65 17 5 1018.96 0 0
2024-05-23 01:44:25 14 15.3 0.07 0 264 66 17 2 1018.63 0 0
2024-05-23 00:34:25 8 14.8 0.04 0 274 61 18 4 1018.63 0 0
2024-05-22 23:48:31 11 16 0.055 0 287 62 17 4 1018.29 0 1
2024-05-22 23:18:30 6 14.9 0.03 0 252 62 18 4 1018.29 0 1
2024-05-22 22:48:29 15 16.9 0.075 0 241 63 18 3 1018.29 0 1
2024-05-22 22:17:59 14 15.7 0.07 0 252 65 18 3 1017.95 0 1
2024-05-22 21:47:58 13 14.5 0.065 0 264 64 18 7 1017.61 0 1
2024-05-22 21:17:37 10 13.5 0.05 0 36 64 18 0 1017.61 0 1
2024-05-22 20:47:36 14 13.9 0.07 1.6 318 62 19 4 1017.27 0 1
2024-05-22 20:17:17 11 12.2 0.055 12.9 318 58 19 6 1017.27 0 1
2024-05-22 19:47:16 11 12.7 0.055 30.8 330 54 20 9 1016.93 0 1
2024-05-22 19:16:57 15 15.1 0.075 93.9 258 51 21 5 1016.59 0 1
2024-05-22 18:45:16 12 14.6 0.06 123.8 222 52 22 5 1016.59 0 1
2024-05-22 18:14:39 12 14.1 0.06 121.2 240 49 22 7 1016.26 0 1
2024-05-22 17:44:38 14 14.5 0.07 81 276 47 22 2 1015.92 0 1
2024-05-22 17:14:29 17 16.2 0.085 332.8 306 45 23 3 1015.58 0 1
2024-05-22 16:44:28 13 13.4 0.065 576.2 336 44 23 10 1015.92 0 1
2024-05-22 16:14:05 12 13.9 0.06 617.2 252 47 22 7 1016.26 0 1
2024-05-22 15:44:04 18 15.6 0.09 680.6 300 47 22 6 1016.26 0 1
2024-05-22 15:13:49 14 16.7 0.07 751.8 196 49 23 8 1016.59 0 1
2024-05-22 14:43:48 18 14.8 0.09 830.4 318 50 22 7 1016.59 0 1
2024-05-22 14:13:29 17 13.7 0.085 890 248 53 22 5 1016.93 0 1
2024-05-22 13:42:05 22 16.2 0.11 964.5 246 52 21 12 1016.93 0 1
2024-05-22 13:11:47 12 16.8 0.06 1040.1 246 53 21 6 1016.93 0 1
2024-05-22 12:41:47 7 0.7 0.035 968.2 282 52 21 5 1016.93 0 1
2024-05-22 12:11:46 9 11.5 0.045 235.3 330 53 21 9 1016.93 0 1
2024-05-22 11:39:03 12 15.2 0.06 950.5 248 55 20 4 1016.59 0 1
2024-05-22 11:08:40 5 15.4 0.025 555.9 21 57 20 12 1016.59 0 1
2024-05-22 10:38:39 12 14.9 0.06 878.3 342 56 20 5 1016.59 0 1
2024-05-22 10:08:38 18 15.7 0.09 379.9 266 61 18 7 1016.26 0 1
2024-05-22 09:38:38 12 13.9 0.06 285 282 62 18 3 1015.58 0 1
2024-05-22 09:08:33 10 15.5 0.05 342.3 318 64 17 7 1015.58 0 1
2024-05-22 08:37:26 19 16.2 0.095 140.5 236 66 16 7 1015.58 0 1
2024-05-22 08:07:09 12 13.2 0.06 119.5 256 68 16 12 1015.24 0 1
2024-05-22 07:37:08 13 15.5 0.065 95.1 229 68 16 8 1014.9 0 1
2024-05-22 07:06:51 13 16.3 0.065 108.1 216 68 16 8 1014.9 0 1
2024-05-22 06:36:32 20 15.3 0.1 57.6 300 66 16 7 1014.22 0 1
2024-05-22 06:06:12 18 15.7 0.09 19.3 260 66 16 7 1014.22 0 1
2024-05-22 05:36:11 12 16 0.06 8.2 240 69 16 7 1013.88 0 1
2024-05-22 05:06:10 8 13.6 0.04 1.7 269 70 16 2 1013.88 0 1
2024-05-22 04:36:09 2 0.2 0.01 0 251 73 15 6 1013.55 0 1
2024-05-22 04:04:29 12 15.6 0.06 0 248 75 15 16 1013.55 0 1
2024-05-22 02:54:31 19 16.5 0.095 0 265 86 15 9 1013.88 0 1
2024-05-22 01:44:38 16 13.8 0.08 0 276 90 15 3 1013.55 0 0
2024-05-22 00:34:46 14 14.5 0.07 0 203 93 16 0 1012.87 0 0
2024-05-21 23:47:07 11 14.9 0.055 0 145 92 16 2 1012.53 0 10
2024-05-21 23:16:35 13 12.7 0.065 0 138 93 16 3 1011.85 0 10
2024-05-21 22:46:34 18 17.2 0.09 0 109 94 16 4 1011.51 0 10
2024-05-21 22:16:13 10 14.3 0.05 0 216 93 16 0 1010.5 0 10
2024-05-21 21:46:12 15 14.9 0.075 0 122 94 16 4 1010.5 0 10
2024-05-21 21:16:11 13 15.4 0.065 0 80 93 17 10 1011.18 0 10
2024-05-21 20:46:11 16 16.6 0.08 0.4 109 91 19 0 1009.82 0 10
2024-05-21 20:16:10 22 17 0.11 2.3 55 87 20 0 1010.5 0 9
2024-05-21 19:46:09 10 13.1 0.05 13.4 18 88 20 0 1010.5 0 9
2024-05-21 19:15:43 10 15.3 0.05 57.4 68 85 21 2 1010.5 0 9
2024-05-21 18:45:41 13 14.3 0.065 103.8 115 86 21 4 1011.18 0 9
2024-05-21 18:15:06 16 16.8 0.08 141.3 132 86 21 2 1011.85 0 9
2024-05-21 17:45:05 23 18.5 0.115 68.7 135 87 20 0 1012.19 0 9
2024-05-21 17:15:04 20 16 0.1 134.9 131 89 21 5 1012.19 0 9
2024-05-21 16:44:01 14 14.5 0.07 222.9 210 94 20 0 1012.19 0 9
2024-05-21 16:13:24 9 14.1 0.045 36.4 210 95 19 0 1012.53 10 9
2024-05-21 15:43:23 14 12.6 0.07 14.6 78 92 19 0 1012.87 29 7
2024-05-21 15:12:43 17 16.8 0.085 42 123 85 21 0 1013.21 0 2
2024-05-21 14:42:42 20 15.2 0.1 111.1 96 83 21 5 1013.21 0 2
2024-05-21 14:12:27 14 15.7 0.07 242.4 102 78 22 3 1013.88 0 2
2024-05-21 13:42:26 9 15.4 0.045 208.9 113 79 22 3 1013.88 0 2
2024-05-21 13:12:18 15 13.3 0.075 274.9 67 81 21 3 1014.22 0 2
2024-05-21 12:42:18 4 0.4 0.02 98.8 90 84 20 3 1014.9 0 2
2024-05-21 12:11:59 16 15.1 0.08 97.8 102 86 20 3 1014.9 0 2
2024-05-21 11:41:58 17 14.2 0.085 166.7 53 87 19 0 1015.58 0 2
2024-05-21 11:11:39 10 13.3 0.05 86.3 120 89 19 0 1015.58 0 2
2024-05-21 10:41:21 15 14.4 0.075 137.1 66 90 18 3 1015.58 0 2
2024-05-21 10:11:04 12 17.9 0.06 123 98 91 18 0 1015.58 0 2
2024-05-21 09:40:48 12 15.1 0.06 281.6 88 92 18 0 1015.58 0 2
2024-05-21 09:10:32 19 15.5 0.095 97.3 60 93 17 4 1015.92 0 2
2024-05-21 08:40:31 17 15.3 0.085 141.3 108 94 17 3 1015.92 0 2
2024-05-21 08:10:16 21 15.5 0.105 94.6 114 94 16 3 1015.58 0 2
2024-05-21 07:40:15 10 14.9 0.05 82.8 79 95 16 3 1015.58 0 2
2024-05-21 07:09:59 14 15.3 0.07 37.1 167 95 16 0 1015.58 0 2
2024-05-21 06:39:58 14 18 0.07 22.8 66 95 15 0 1015.58 0 2
2024-05-21 06:09:39 15 15.7 0.075 18 120 95 15 0 1015.24 0 2
2024-05-21 05:36:44 13 13.2 0.065 1.3 157 94 15 0 1015.58 5 2
2024-05-21 05:06:25 19 15.4 0.095 0.5 150 91 15 2 1015.92 0 0
2024-05-21 04:36:25 1 0.1 0.005 0 84 93 15 0 1015.58 0 0
2024-05-21 04:04:06 18 14.5 0.09 0 84 91 15 0 1015.92 0 0
2024-05-21 02:54:14 11 12.6 0.055 0 90 91 16 0 1016.26 0 0
2024-05-21 01:44:19 11 14.9 0.055 0 198 91 16 0 1016.26 0 0
2024-05-21 00:34:17 17 15.6 0.085 0 198 89 17 2 1016.59 0 0
2024-05-20 23:44:15 21 14.7 0.105 0 198 87 17 0 1016.59 0 1
2024-05-20 23:13:36 16 14.1 0.08 0 198 86 17 0 1016.59 0 1
2024-05-20 22:43:35 14 13.2 0.07 0 198 84 18 0 1016.59 0 1
2024-05-20 22:13:17 11 13.6 0.055 0 198 82 18 0 1016.93 0 1
2024-05-20 21:43:15 13 14.2 0.065 0 198 78 19 0 1016.59 0 1
2024-05-20 21:13:14 9 13.5 0.045 0 138 78 19 0 1016.26 0 1
2024-05-20 20:43:13 16 15.3 0.08 1.6 138 77 20 0 1016.59 0 1
2024-05-20 20:13:02 12 12.6 0.06 16.4 134 73 21 2 1016.26 0 1
2024-05-20 19:43:01 12 13.5 0.06 38.7 184 66 23 0 1016.26 0 1
2024-05-20 19:13:00 12 17.9 0.06 67.6 185 60 23 0 1015.92 0 1
2024-05-20 18:42:59 8 15.4 0.04 108.8 162 58 23 0 1015.92 0 1
2024-05-20 18:12:54 11 13 0.055 98.9 157 56 23 3 1015.92 0 1
2024-05-20 17:42:53 12 15.8 0.06 108.1 84 54 24 0 1015.58 0 1
2024-05-20 17:12:43 17 15.9 0.085 115.8 144 52 24 4 1015.92 0 1
2024-05-20 16:42:42 20 13.9 0.1 481.1 108 54 24 7 1016.26 0 1
2024-05-20 16:12:41 14 16.4 0.07 592.2 112 53 25 5 1016.26 0 1
2024-05-20 15:42:20 17 16.2 0.085 269.6 84 57 23 5 1016.59 0 1
2024-05-20 15:11:59 19 16.3 0.095 398.4 183 57 24 2 1016.93 0 1
2024-05-20 14:41:58 19 16.5 0.095 242.9 72 59 23 3 1017.61 0 1
2024-05-20 14:11:47 16 15.8 0.08 661.3 214 52 24 0 1017.61 0 1
2024-05-20 13:41:46 7 14.9 0.035 866 108 51 23 0 1017.95 0 1
2024-05-20 13:11:27 15 13.1 0.075 864.2 76 54 23 3 1017.95 0 1
2024-05-20 12:41:25 6 0.7 0.03 850.8 78 57 23 4 1018.29 0 1
2024-05-20 12:11:06 12 13.7 0.06 884.5 217 56 22 6 1018.63 0 1
2024-05-20 11:38:04 9 13.8 0.045 864.1 120 55 22 4 1018.29 0 1
2024-05-20 11:07:41 18 14.1 0.09 840.2 79 62 22 3 1018.29 0 1
2024-05-20 10:37:40 12 12.9 0.06 783.4 93 59 21 6 1018.29 0 1
2024-05-20 10:07:25 11 14 0.055 753.1 300 64 21 0 1018.29 0 1
2024-05-20 09:37:24 14 15.9 0.07 229.8 336 67 20 4 1017.95 0 1
2024-05-20 09:07:05 18 14.1 0.09 541.9 310 69 20 2 1017.95 0 1
2024-05-20 08:37:03 19 14.8 0.095 446 84 72 19 3 1018.29 0 1
2024-05-20 08:06:44 16 15.8 0.08 355.4 102 77 18 4 1017.95 0 1
2024-05-20 07:36:43 14 14.9 0.07 264.3 84 75 18 0 1017.95 0 1
2024-05-20 07:06:43 15 14.9 0.075 88.9 116 87 16 2 1017.61 0 1
2024-05-20 06:36:42 15 15.4 0.075 73.6 269 87 15 2 1017.61 0 1
2024-05-20 06:06:21 11 15.2 0.055 33.9 280 93 14 0 1017.61 0 1
2024-05-20 05:06:09 18 16.5 0.09 1.5 280 88 15 0 1017.95 0 1
2024-05-20 04:36:09 1 0.1 0.005 0 262 88 15 0 1017.95 0 1
2024-05-20 04:04:20 9 13.4 0.045 0 222 87 15 7 1017.61 0 1
2024-05-20 02:54:19 12 14.3 0.06 0 270 88 16 4 1016.93 2 1
2024-05-20 01:44:19 11 14.2 0.055 0 215 90 16 0 1016.26 0 0
2024-05-20 00:34:20 11 16.3 0.055 0 215 89 15 0 1016.59 0 0
2024-05-19 23:43:00 15 15.8 0.075 0 215 89 15 0 1016.59 0 0
2024-05-19 23:12:59 18 12.5 0.09 0 215 88 16 0 1016.26 0 0
2024-05-19 22:42:58 13 12.5 0.065 0 215 89 17 0 1016.26 0 0
2024-05-19 22:12:39 16 15.8 0.08 0 215 87 17 0 1016.26 0 0
2024-05-19 21:42:38 18 15.5 0.09 0 173 84 18 0 1016.26 0 0
2024-05-19 21:12:37 21 14.9 0.105 0 134 68 20 3 1016.26 0 0
2024-05-19 20:41:45 21 14.5 0.105 1.2 196 65 21 0 1015.92 0 0
2024-05-19 20:11:08 22 16.1 0.11 23.2 157 59 21 0 1015.92 0 0
2024-05-19 19:41:06 9 13.7 0.045 79.9 138 56 22 3 1015.58 0 0
2024-05-19 19:10:31 18 15.2 0.09 69.4 86 56 22 3 1015.92 0 0
2024-05-19 18:40:30 8 16.1 0.04 158.5 156 53 22 8 1015.92 0 0
2024-05-19 18:10:12 13 13.8 0.065 76.2 84 53 22 2 1015.92 0 0
2024-05-19 17:40:12 12 15.4 0.06 97.7 109 47 23 4 1015.92 0 0
2024-05-19 17:10:11 12 14.7 0.06 134.1 99 45 23 5 1016.26 0 0
2024-05-19 16:40:09 18 15 0.09 114.7 138 44 23 3 1016.26 0 0
2024-05-19 16:09:55 7 14.7 0.035 508.9 330 37 24 4 1016.59 0 0
2024-05-19 15:39:54 15 15.6 0.075 234.6 126 37 25 5 1016.59 0 0
2024-05-19 15:09:31 10 13.9 0.05 795.6 324 38 24 0 1016.93 0 0
2024-05-19 14:39:30 13 14.6 0.065 791.4 102 42 23 3 1016.93 0 0
2024-05-19 14:09:30 15 13.9 0.075 838 10 39 23 10 1017.27 0 0
2024-05-19 13:39:29 14 14 0.07 908 264 40 23 9 1017.61 0 0
2024-05-19 13:09:13 21 17.6 0.105 893.7 23 42 22 4 1017.61 0 0
2024-05-19 12:39:12 9 0.9 0.045 890.3 318 44 22 5 1017.61 0 0
2024-05-19 12:08:51 15 14.6 0.075 883.5 29 44 22 0 1017.95 0 0
2024-05-19 11:08:50 15 14 0.075 632.9 318 45 21 14 1018.29 0 0
2024-05-19 10:37:53 17 15.6 0.085 780.5 18 50 20 6 1018.29 0 0
2024-05-19 10:07:36 14 15.4 0.07 720.5 13 52 20 5 1018.29 0 0
2024-05-19 09:37:33 16 16.5 0.08 636 276 55 19 3 1018.29 0 0
2024-05-19 09:07:32 14 15.5 0.07 459.2 258 58 19 5 1017.95 0 0
2024-05-19 08:37:31 15 12.8 0.075 460.6 222 58 19 5 1017.95 0 0
2024-05-19 08:07:12 17 15.8 0.085 354.6 282 62 18 13 1017.95 0 0
2024-05-19 07:37:11 13 12.9 0.065 253.4 342 64 17 4 1017.27 0 0
2024-05-19 07:07:10 26 17.6 0.13 159.3 240 67 17 10 1016.93 0 0
2024-05-19 06:36:55 14 15.4 0.07 84 249 69 16 9 1016.59 0 0
2024-05-19 06:06:30 13 15.7 0.065 38.6 263 74 16 9 1016.59 0 0
2024-05-19 05:36:28 17 14.6 0.085 15.8 280 81 15 6 1016.59 0 0
2024-05-19 05:06:29 14 14.4 0.07 1.9 239 95 12 4 1016.59 0 0
2024-05-19 04:04:21 21 16.1 0.105 0 314 95 13 0 1015.58 0 0
2024-05-19 02:54:22 16 15.5 0.08 0 132 91 15 0 1015.58 0 0
2024-05-19 01:44:25 9 13.6 0.045 0 172 90 15 0 1016.26 0 0
2024-05-19 00:34:24 7 15.2 0.035 0 192 81 17 0 1016.59 0 0
2024-05-18 23:45:00 17 16.3 0.085 0 192 88 15 0 1016.93 0 0
2024-05-18 23:14:59 14 17.2 0.07 0 192 86 15 0 1016.93 0 0
2024-05-18 22:43:51 11 14.6 0.055 0 192 85 16 0 1016.93 0 0
2024-05-18 22:13:14 17 16.1 0.085 0 192 81 17 0 1017.27 0 0
2024-05-18 21:43:13 12 13.6 0.06 0 222 70 17 4 1016.93 0 0
2024-05-18 21:12:54 15 13.7 0.075 0 162 68 18 11 1017.61 0 0
2024-05-18 20:42:35 15 14.3 0.075 1.1 147 71 18 5 1017.27 0 0
2024-05-18 20:12:00 11 15.9 0.055 24.4 204 73 18 7 1017.27 0 0
2024-05-18 19:42:00 19 15 0.095 28.2 178 79 19 3 1017.27 0 0
2024-05-18 19:11:58 14 15.3 0.07 56.5 178 78 19 3 1017.27 0 0
2024-05-18 18:41:58 21 15.9 0.105 55.9 137 78 19 0 1017.61 0 0
2024-05-18 18:11:32 17 13.3 0.085 80.6 111 76 19 4 1017.61 0 0
2024-05-18 17:41:31 17 17.4 0.085 196.7 98 73 19 3 1017.61 0 0
2024-05-18 17:11:12 13 14.3 0.065 189.4 60 73 19 4 1018.29 0 0
2024-05-18 16:41:11 14 14.7 0.07 295.7 156 75 19 3 1017.95 0 0
2024-05-18 16:11:10 12 14.2 0.06 179 114 75 18 7 1018.29 0 0
2024-05-18 15:41:09 8 12.8 0.04 912.9 100 73 19 5 1018.63 0 0
2024-05-18 15:10:58 13 17.3 0.065 403.2 65 75 18 2 1018.96 0 0
2024-05-18 14:40:15 14 15.9 0.07 442.6 138 74 18 3 1019.3 0 0
2024-05-18 14:09:56 16 13.8 0.08 302.7 65 74 18 2 1018.96 0 0
2024-05-18 13:39:55 16 14.1 0.08 413.7 55 73 18 5 1019.3 0 0
2024-05-18 13:09:54 8 14.1 0.04 429.3 91 73 18 6 1019.3 0 0
2024-05-18 10:38:21 18 15.3 0.09 317.4 132 83 15 2 1019.98 0 0
2024-05-18 10:08:22 13 16.1 0.065 264.1 102 86 14 0 1019.98 0 0
2024-05-18 09:38:19 11 15 0.055 332.9 122 87 14 0 1019.98 0 0
2024-05-18 09:08:18 12 14.6 0.06 185.1 175 89 14 0 1019.98 0 0
2024-05-18 08:38:17 10 15.1 0.05 120.2 157 91 13 0 1019.98 0 0
2024-05-18 08:08:10 13 14 0.065 130.8 172 92 12 4 1019.98 0 0
2024-05-18 07:38:08 9 12.7 0.045 121.3 90 93 12 3 1019.64 0 0
2024-05-18 07:08:06 12 14.7 0.06 74.7 154 95 12 0 1019.64 0 0
2024-05-18 06:37:00 14 13.9 0.07 36.7 126 95 11 4 1019.64 0 0
2024-05-18 06:06:42 14 14.3 0.07 15.1 138 96 11 2 1019.3 0 0
2024-05-18 05:36:41 10 12.3 0.05 7.6 138 97 11 0 1018.96 0 0
2024-05-18 05:06:40 15 11.7 0.075 1.3 126 97 11 0 1018.96 0 0
2024-05-18 04:36:13 1 0.2 0.005 0 109 97 11 0 1018.96 0 0
2024-05-18 04:04:21 22 15.1 0.11 0 161 97 11 4 1018.63 0 0
2024-05-18 02:54:23 17 14.4 0.085 0 144 97 12 0 1018.63 0 0
2024-05-18 01:44:24 10 14.7 0.05 0 144 97 10 0 1018.63 0 0
2024-05-18 00:34:26 12 14.8 0.06 0 144 97 11 0 1018.96 0 0
2024-05-17 23:46:59 10 12.6 0.05 0 144 96 12 0 1018.96 0 29
2024-05-17 23:16:58 21 16.8 0.105 0 144 95 12 0 1018.63 0 29
2024-05-17 22:44:26 8 12.9 0.04 0 121 95 13 0 1018.63 0 29
2024-05-17 22:13:43 14 14.3 0.07 0 52 96 13 0 1018.63 0 29
2024-05-17 21:42:53 13 15.2 0.065 0 136 96 13 0 1018.63 0 29
2024-05-17 21:12:20 18 15.1 0.09 0 136 96 13 0 1018.29 0 29
2024-05-17 20:41:41 9 15.3 0.045 1.4 136 96 13 0 1017.95 0 29
2024-05-17 20:11:04 17 15.1 0.085 12.3 136 95 14 0 1017.61 0 29
2024-05-17 19:41:03 20 13 0.1 47.5 132 94 14 3 1017.61 0 29
2024-05-17 19:10:54 18 14.1 0.09 15.9 84 94 14 4 1017.27 0 29
2024-05-17 18:40:53 14 13.3 0.07 70.8 53 93 15 0 1016.93 0 29
2024-05-17 18:10:50 18 15.6 0.09 92.7 53 92 15 0 1016.93 0 29
2024-05-17 17:40:49 19 14.6 0.095 104.5 53 90 15 0 1016.93 0 29
2024-05-17 17:10:48 15 13.1 0.075 168.4 336 93 15 3 1016.59 0 29
2024-05-17 16:40:47 11 14.5 0.055 129.6 308 94 14 0 1016.59 2 29
2024-05-17 16:10:34 15 13.7 0.075 46.8 318 93 14 3 1016.26 0 28
2024-05-17 15:40:34 10 15.8 0.05 285.1 312 91 15 3 1015.92 0 28
2024-05-17 15:10:18 17 14.2 0.085 834.7 336 94 14 6 1015.24 0 28
2024-05-17 14:40:17 21 16.9 0.105 40.1 338 96 13 5 1015.24 0 28
2024-05-17 14:10:16 7 16.5 0.035 21.1 324 95 12 0 1015.24 7 26
2024-05-17 13:40:15 15 14.1 0.075 26.4 270 91 13 2 1014.9 2 22
2024-05-17 13:10:02 12 13.6 0.06 138.2 92 91 14 2 1014.9 0 22
2024-05-17 12:38:56 4 0.4 0.02 114.2 97 93 14 0 1014.56 0 22
2024-05-17 12:08:39 13 14.5 0.065 96.6 84 93 13 8 1014.56 0 22
2024-05-17 11:38:38 12 14.7 0.06 142.4 104 94 13 6 1014.22 0 22
2024-05-17 11:08:19 12 15.7 0.06 220.6 197 94 13 4 1013.88 0 22
2024-05-17 10:38:18 16 12.7 0.08 117.5 104 94 13 5 1013.88 0 22
2024-05-17 10:08:27 17 15.7 0.085 99.5 132 95 12 5 1013.88 0 22
2024-05-17 09:37:30 19 15.6 0.095 69 126 95 12 5 1013.55 0 22
2024-05-17 09:07:09 13 14.8 0.065 74.8 99 95 12 5 1013.88 0 22
2024-05-17 08:37:08 8 15.1 0.04 50.4 108 96 12 4 1013.55 0 22
2024-05-17 08:07:07 13 16.1 0.065 31.1 132 96 12 3 1013.88 0 22
2024-05-17 07:37:06 11 15.2 0.055 23.9 108 96 12 3 1013.21 2 22
2024-05-17 07:06:47 11 15.3 0.055 14 108 96 12 6 1013.21 5 20
2024-05-17 06:36:46 17 16.9 0.085 8.5 90 96 12 10 1012.87 7 18
2024-05-17 06:06:27 17 15.1 0.085 2 84 96 13 5 1012.53 0 15
2024-05-17 05:36:26 20 15.4 0.1 1.2 150 95 13 4 1012.53 2 15
2024-05-17 05:06:10 15 13.4 0.075 0 138 95 13 0 1013.21 7 12
2024-05-17 04:36:09 1 0.1 0.005 0 146 94 13 4 1013.21 10 7
2024-05-17 04:04:25 17 13.5 0.085 0 108 91 13 3 1013.55 7 2
2024-05-17 02:54:19 13 14.1 0.065 0 108 67 16 4 1013.55 0 0
2024-05-17 01:44:21 13 15.3 0.065 0 96 64 16 3 1013.88 0 0
2024-05-17 00:34:21 14 15.3 0.07 0 97 64 16 4 1014.9 0 0
2024-05-16 17:10:10 16 15.7 0.08 41.8 139 80 16 0 1017.27 0 0
2024-05-16 16:40:09 13 13.8 0.065 66.1 111 81 16 5 1017.95 0 0
2024-05-16 16:10:08 8 15.6 0.04 157.6 137 83 16 5 1018.29 0 0
2024-05-16 15:39:54 9 14.9 0.045 127.4 180 77 17 3 1017.95 0 0
2024-05-16 15:09:18 13 16.7 0.065 153.3 126 78 17 0 1018.29 0 0
2024-05-16 14:39:17 15 14.8 0.075 128.9 146 68 18 4 1018.29 0 0
2024-05-16 14:09:09 17 14.7 0.085 262.5 216 67 17 9 1018.29 0 0
2024-05-16 13:08:50 16 13.4 0.08 130.4 126 69 17 9 1018.96 0 0
2024-05-16 12:38:49 7 0.7 0.035 264.7 120 68 17 4 1018.63 0 0
2024-05-16 12:08:44 10 12 0.05 229.4 124 69 16 4 1018.96 0 0
2024-05-16 11:38:43 10 16 0.05 110.4 151 70 16 7 1018.96 0 0
2024-05-16 11:08:43 13 14.2 0.065 164.3 152 70 16 9 1018.96 0 0
2024-05-16 10:38:42 20 16.3 0.1 312.6 134 68 16 7 1019.64 0 0
2024-05-16 10:08:23 17 14.3 0.085 317.5 130 70 15 5 1019.64 0 0
2024-05-16 09:38:22 11 14.6 0.055 379.1 98 69 15 5 1019.3 0 0
2024-05-16 09:08:03 19 13.4 0.095 395.9 104 70 15 9 1019.64 0 0
2024-05-16 08:38:02 17 16.3 0.085 417.3 97 72 15 7 1019.64 0 0
2024-05-16 08:08:01 19 14.7 0.095 385.2 139 74 14 7 1019.64 0 0
2024-05-16 07:37:40 14 12.6 0.07 103.2 150 78 13 6 1019.3 0 0
2024-05-16 07:07:21 14 14.8 0.07 77.2 215 79 13 5 1019.3 0 0
2024-05-16 06:37:20 12 13.3 0.06 51 111 78 13 2 1019.3 0 0
2024-05-16 06:07:08 16 15.1 0.08 15.1 144 77 13 4 1018.96 0 0
2024-05-16 05:37:07 11 16.2 0.055 5.8 163 76 13 0 1018.63 0 0
2024-05-16 05:06:44 22 15.1 0.11 1.3 138 74 13 5 1018.63 0 0
2024-05-16 04:36:44 1 0.2 0.005 0 132 71 14 0 1018.63 0 0
2024-05-16 04:04:05 16 15.8 0.08 0 92 69 14 5 1018.63 0 0
2024-05-16 02:55:10 20 14.1 0.1 0 99 65 15 10 1018.63 0 0
2024-05-16 01:44:13 18 14.7 0.09 0 77 65 15 3 1018.96 0 0
2024-05-16 00:34:18 11 15.3 0.055 0 168 64 15 3 1018.96 0 0
2024-05-15 23:49:14 15 13.8 0.075 0 162 63 16 5 1018.96 0 0
2024-05-15 23:19:14 12 14.8 0.06 0 91 60 16 3 1018.96 0 0
2024-05-15 22:49:13 14 14.2 0.07 0 145 61 16 2 1018.96 0 0
2024-05-15 22:19:00 21 15.5 0.105 0 174 61 16 0 1018.63 0 0
2024-05-15 21:48:59 12 15.1 0.06 0 194 59 16 0 1018.63 0 0
2024-05-15 21:18:42 16 15.2 0.08 0 182 58 17 0 1017.95 0 0
2024-05-15 20:48:41 19 14.8 0.095 0 159 51 18 5 1017.95 0 0
2024-05-15 20:18:40 10 13.6 0.05 6.1 114 49 19 3 1017.95 0 0
2024-05-15 19:48:40 16 14.4 0.08 22.2 90 47 20 4 1017.61 0 0
2024-05-15 19:18:22 13 14.5 0.065 41.2 184 44 21 4 1017.61 0 0
2024-05-15 18:46:57 13 14.3 0.065 56.8 150 41 21 6 1017.95 0 0
2024-05-15 18:16:22 19 17.9 0.095 54.2 144 43 21 6 1017.61 0 0
2024-05-15 17:46:21 9 13.5 0.045 86.6 210 42 22 4 1017.61 0 0
2024-05-15 17:15:59 15 17.7 0.075 131.8 74 40 21 8 1017.61 0 0
2024-05-15 16:45:58 12 16.1 0.06 480.7 74 39 23 4 1017.61 0 0
2024-05-15 16:15:57 19 13.6 0.095 622.4 128 41 22 10 1017.95 0 0
2024-05-15 15:45:16 12 16.2 0.06 284.9 102 43 21 12 1018.29 0 0
2024-05-15 15:14:55 12 13.5 0.06 172.4 94 42 22 9 1018.29 0 0
2024-05-15 14:44:54 13 13.9 0.065 819.6 85 41 23 10 1018.29 0 0
2024-05-15 14:14:47 14 16 0.07 906.9 132 41 22 3 1018.63 0 0
2024-05-15 13:42:59 15 15 0.075 934 107 41 22 9 1018.63 0 0
2024-05-15 13:12:40 11 14.7 0.055 237.6 151 45 21 18 1018.63 0 0
2024-05-15 12:42:42 3 0.3 0.015 986 78 44 22 10 1018.63 0 0
2024-05-15 12:12:38 9 13.6 0.045 232.7 197 44 21 4 1018.96 0 0
2024-05-15 11:42:33 7 13 0.035 427 120 49 21 9 1018.63 0 0
2024-05-15 11:12:17 10 14.9 0.05 813.1 170 51 20 9 1018.96 0 0
2024-05-15 10:40:52 12 17.8 0.06 753 133 51 20 3 1018.63 0 0
2024-05-15 10:10:33 15 13.8 0.075 693.7 117 49 20 7 1018.63 0 0
2024-05-15 09:40:00 9 13 0.045 621.1 120 55 18 4 1018.96 0 0
2024-05-15 09:09:46 20 14.4 0.1 528.8 120 58 17 0 1018.96 0 0
2024-05-15 08:39:45 16 13.9 0.08 437.9 89 62 16 4 1018.63 0 0
2024-05-15 08:09:42 19 15.6 0.095 340.2 112 61 15 0 1018.96 0 0
2024-05-15 07:38:21 12 14.5 0.06 240.3 97 67 14 0 1018.63 0 0
2024-05-15 07:08:01 17 16.3 0.085 61.9 299 76 12 0 1018.29 0 0
2024-05-15 06:38:00 10 12.9 0.05 49.6 299 76 11 0 1018.29 0 0
2024-05-15 06:07:59 16 15.8 0.08 35.1 298 86 9 0 1018.29 0 0
2024-05-15 05:36:29 13 12.9 0.065 13.4 298 89 8 0 1017.95 0 0
2024-05-15 05:06:08 14 15 0.07 1.6 298 87 9 0 1017.95 0 0
2024-05-15 04:36:07 1 0.2 0.005 0 298 87 9 0 1017.61 0 0
2024-05-15 04:05:16 9 10.8 0.045 0 300 87 9 0 1017.95 0 0
2024-05-15 02:54:36 10 12.7 0.05 0 299 81 10 0 1017.95 0 0
2024-05-15 01:44:37 15 13.5 0.075 0 180 81 10 0 1018.29 0 0
2024-05-15 00:34:39 18 18.1 0.09 0 180 79 10 0 1018.63 0 0
2024-05-14 23:47:31 18 15.3 0.09 0 180 73 12 0 1018.63 0 0
2024-05-14 23:17:30 17 15.8 0.085 0 180 71 12 0 1018.63 0 0
2024-05-14 22:47:29 13 14.1 0.065 0 180 69 13 0 1018.63 0 0
2024-05-14 22:16:51 13 14.6 0.065 0 180 62 14 0 1018.63 0 0
2024-05-14 21:46:46 14 13.5 0.07 0 180 57 15 0 1018.29 0 0
2024-05-14 21:16:27 13 15.4 0.065 0 180 54 15 0 1018.29 0 0
2024-05-14 20:46:26 22 15.6 0.11 0.4 150 50 16 3 1018.29 0 0
2024-05-14 20:16:09 16 15.5 0.08 8.6 150 43 18 3 1017.95 0 0
2024-05-14 19:45:50 12 15.6 0.06 25 110 37 20 4 1017.95 0 0
2024-05-14 19:15:15 12 15 0.06 43.1 162 35 21 4 1017.61 0 0
2024-05-14 18:45:14 16 15.4 0.08 51.4 162 36 21 3 1017.95 0 0
2024-05-14 18:14:37 25 17.2 0.125 62.1 97 35 21 3 1018.29 0 0
2024-05-14 17:44:36 19 15.9 0.095 87.4 65 35 21 5 1017.95 0 0
2024-05-14 17:14:17 19 15.3 0.095 82.2 217 35 22 4 1018.29 0 0
2024-05-14 16:44:12 11 14.3 0.055 480.6 120 36 22 7 1018.29 0 0
2024-05-14 16:14:12 13 15.2 0.065 556 144 36 21 10 1018.63 0 0
2024-05-14 15:44:07 14 16.1 0.07 645.8 192 37 22 12 1018.63 0 0
2024-05-14 15:13:48 17 16.3 0.085 755.6 120 38 22 5 1018.96 0 0
2024-05-14 14:43:47 14 15.4 0.07 871.5 90 39 21 3 1018.96 0 0
2024-05-14 14:13:37 22 16 0.11 876.8 127 40 22 7 1018.96 0 0
2024-05-14 13:43:36 19 14.6 0.095 930.8 174 42 21 5 1019.64 0 0
2024-05-14 13:13:19 20 15.9 0.1 747.8 102 44 21 5 1019.64 0 0
2024-05-14 12:42:05 6 0.7 0.03 921.3 89 45 20 6 1019.64 0 0
2024-05-14 12:11:47 15 15.8 0.075 904.2 138 46 21 14 1019.98 0 0
2024-05-14 11:41:45 17 15.7 0.085 405.1 145 55 19 4 1019.98 0 0
2024-05-14 11:11:33 14 15 0.07 909.9 101 52 20 9 1019.64 0 0
2024-05-14 10:41:16 5 14.3 0.025 824.7 121 57 19 6 1019.98 0 0
2024-05-14 10:10:59 13 17.2 0.065 767 152 62 19 3 1019.98 0 0
2024-05-14 09:40:58 12 14.2 0.06 206.4 103 65 18 11 1019.98 0 0
2024-05-14 09:10:57 11 13.6 0.055 584 113 69 17 4 1019.98 0 0
2024-05-14 08:40:15 16 13.7 0.08 452.8 88 73 17 5 1019.98 0 0
2024-05-14 08:09:56 14 14.3 0.07 310.3 80 78 15 0 1019.98 0 0
2024-05-14 07:39:02 16 14.7 0.08 245.6 108 83 14 5 1019.98 0 0
2024-05-14 07:08:43 17 15.3 0.085 63.4 142 88 12 0 1019.98 0 0
2024-05-14 06:38:42 13 14.4 0.065 51.6 162 85 13 0 1019.64 0 0
2024-05-14 06:08:41 18 15.1 0.09 36.7 162 91 10 0 1019.64 0 0
2024-05-14 05:37:12 14 12.9 0.07 13.7 162 92 9 0 1019.64 0 0
2024-05-14 05:06:38 9 11.9 0.045 1.5 162 91 9 3 1018.96 0 0
2024-05-14 04:36:22 1 0.1 0.005 0 162 91 9 0 1019.3 0 0
2024-05-14 04:04:15 16 15.4 0.08 0 162 89 10 0 1018.96 0 0
2024-05-14 02:54:15 7 14.3 0.035 0 162 87 11 0 1018.96 0 0
2024-05-14 01:44:17 15 14.2 0.075 0 162 82 12 0 1019.3 0 0
2024-05-14 00:34:18 14 12.6 0.07 0 216 78 13 2 1019.64 0 0
2024-05-13 23:45:33 17 15.2 0.085 0 129 73 15 4 1019.98 0 0
2024-05-13 23:15:32 16 12.9 0.08 0 175 71 15 0 1019.64 0 0
2024-05-13 22:45:27 16 13.6 0.08 0 179 66 16 2 1019.98 0 0
2024-05-13 22:14:57 14 15.6 0.07 0 180 63 16 3 1019.98 0 0
2024-05-13 21:44:56 9 15.7 0.045 0 204 61 17 4 1019.98 0 0
2024-05-13 21:14:53 13 14.5 0.065 0 132 62 17 2 1019.64 0 0
2024-05-13 20:44:52 13 16.1 0.065 0.4 109 63 17 2 1019.98 0 0
2024-05-13 20:14:34 17 15 0.085 9 162 62 17 2 1019.98 0 0
2024-05-13 19:44:33 21 17.6 0.105 29.3 162 60 18 3 1019.98 0 0
2024-05-13 19:14:32 18 16.3 0.09 50.2 133 60 18 6 1019.64 0 0
2024-05-13 18:42:27 9 14.8 0.045 61.4 115 59 18 7 1019.64 0 0
2024-05-13 18:11:49 16 14.5 0.08 70.4 69 57 19 7 1019.64 0 0
2024-05-13 17:41:48 14 15.4 0.07 91.6 174 55 20 6 1019.98 0 0
2024-05-13 17:11:29 20 15.7 0.1 118.7 115 55 20 11 1019.98 0 0
2024-05-13 16:41:28 10 14.9 0.05 436.8 120 54 20 4 1020.32 0 0
2024-05-13 16:11:09 15 15.8 0.075 449.4 132 52 20 5 1021 0 0
2024-05-13 15:41:08 19 14.3 0.095 374.1 164 48 20 12 1021 0 0
2024-05-13 15:10:48 14 15.9 0.07 819.6 95 45 20 10 1021.33 0 0
2024-05-13 14:40:47 16 18.2 0.08 292.7 73 45 19 7 1021.33 0 0
2024-05-13 14:10:28 18 15.5 0.09 966.6 228 42 20 5 1021.67 0 0
2024-05-13 13:40:26 14 15.8 0.07 455.4 115 45 19 6 1022.01 0 0
2024-05-13 13:10:09 13 14.5 0.065 848 107 45 19 11 1022.35 0 0
2024-05-13 12:40:08 4 0.5 0.02 618.4 102 44 18 8 1022.69 0 0
2024-05-13 12:09:54 17 14.7 0.085 848.2 113 43 18 5 1022.69 0 0
2024-05-13 11:39:53 14 15.1 0.07 831.7 107 44 18 3 1023.37 0 0
2024-05-13 11:09:34 11 13.7 0.055 778 84 44 18 3 1023.37 0 0
2024-05-13 10:39:33 15 16.5 0.075 746.6 82 45 16 3 1023.37 0 0
2024-05-13 10:09:15 10 12.8 0.05 691.8 144 44 16 5 1023.37 0 0
2024-05-13 09:39:14 18 15.5 0.09 610.9 120 44 15 7 1023.71 0 0
2024-05-13 09:09:13 13 13.4 0.065 515.1 126 44 15 4 1024.04 0 0
2024-05-13 08:39:12 12 14.4 0.06 421.6 67 46 15 10 1024.04 0 0
2024-05-13 08:09:00 20 15.5 0.1 329.8 130 48 15 6 1023.71 0 0
2024-05-13 07:38:59 16 14.7 0.08 236.8 126 51 14 8 1024.04 0 0
2024-05-13 07:08:58 10 13.2 0.05 72 108 59 13 4 1024.04 0 0
2024-05-13 06:38:10 14 13.2 0.07 57.4 132 66 12 3 1023.71 0 0
2024-05-13 06:07:51 18 15.6 0.09 36.7 186 75 9 0 1023.71 0 0
2024-05-13 05:37:55 13 14.5 0.065 13.4 186 75 9 0 1023.71 0 0
2024-05-13 05:07:47 14 13.7 0.07 1.3 186 70 9 0 1023.71 0 0
2024-05-13 04:36:21 1 0.2 0.005 0 187 71 9 0 1023.71 0 0
2024-05-13 04:04:13 12 12.2 0.06 0 187 71 9 0 1023.71 0 0
2024-05-13 02:54:14 13 13.7 0.065 0 186 65 10 0 1023.71 0 0
2024-05-13 01:44:14 22 15.3 0.11 0 186 63 10 0 1023.71 0 0
2024-05-13 00:34:16 10 14.9 0.05 0 187 65 11 0 1024.04 0 0
2024-05-12 00:34:23 14 15.9 0.07 0 282 74 13 0 1025.06 0 0
2024-05-11 06:07:03 16 17.1 0.08 31.9 275 52 14 3 1026.08 0 0
2024-05-11 05:36:28 13 14.9 0.065 11.8 245 54 14 6 1026.08 0 0
2024-05-11 05:06:14 16 13.8 0.08 0.8 266 53 13 5 1025.74 0 0
2024-05-11 04:36:13 1 0.1 0.005 0 258 54 13 4 1026.08 0 0
2024-05-11 04:04:21 10 13.4 0.05 0 276 55 13 4 1025.74 0 0
2024-05-11 02:54:21 21 17.3 0.105 0 270 52 14 4 1026.08 0 0
2024-05-11 01:44:20 14 14.5 0.07 0 268 50 14 3 1026.41 0 0
2024-05-11 00:34:24 11 11.1 0.055 0 259 55 14 2 1027.09 0 0
2024-05-10 14:42:00 9 13.7 0.045 656.1 306 34 21 0 1026.75 0 0
2024-05-10 14:11:39 9 13.3 0.045 283.9 318 34 21 3 1027.09 0 0
2024-05-10 13:40:45 8 11.8 0.04 789.1 276 32 21 3 1027.09 0 0
2024-05-10 13:10:28 15 15.1 0.075 714.2 48 34 21 0 1027.43 0 0
2024-05-10 12:40:27 3 0.3 0.015 855.5 6 32 20 4 1027.09 0 0
2024-05-10 12:10:24 10 13.7 0.05 831.6 282 35 21 4 1027.43 0 0
2024-05-10 11:40:23 14 13.6 0.07 850.2 69 34 20 3 1027.43 0 0
2024-05-10 11:10:22 13 15.1 0.065 795.4 318 35 21 7 1027.43 0 0
2024-05-10 10:40:17 7 13.3 0.035 741.7 336 36 19 5 1027.77 0 0
2024-05-10 10:10:03 17 17.4 0.085 681.3 342 38 19 4 1027.77 0 0
2024-05-10 09:40:02 15 13.2 0.075 601.8 318 41 18 2 1027.77 0 0
2024-05-10 09:09:47 12 15.2 0.06 514.2 324 42 18 2 1027.77 0 0
2024-05-10 08:39:46 12 14 0.06 427.3 282 48 17 4 1027.77 0 0
2024-05-10 08:09:25 10 13.3 0.05 326.7 276 53 16 3 1027.77 0 0
2024-05-10 07:39:24 1 0.1 0.005 230.7 270 54 15 4 1027.77 0 0
2024-05-10 04:36:39 1 0.1 0.005 0 270 61 12 3 1027.09 0 0
2024-05-10 04:04:13 15 14.5 0.075 0 270 61 12 2 1027.43 0 0
2024-05-10 02:54:20 22 15.9 0.11 0 273 59 13 3 1027.77 0 0
2024-05-10 01:44:21 13 17 0.065 0 279 59 13 0 1027.77 0 0
2024-05-10 00:34:25 18 14.7 0.09 0 312 54 14 3 1028.11 0 0
2024-05-09 00:34:23 16 13.4 0.08 0 320 68 13 9 1028.45 0 0
2024-05-08 17:10:48 13 15.1 0.065 111.6 318 68 17 3 1025.74 0 0
2024-05-08 16:40:47 13 14.8 0.065 224.4 288 69 17 3 1025.74 0 0
2024-05-08 16:10:24 16 14.9 0.08 248.6 354 70 16 4 1026.08 0 0
2024-05-08 15:40:23 14 15.7 0.07 269.4 252 74 16 2 1025.74 0 0
2024-05-08 15:10:22 14 16.1 0.07 334.4 282 76 15 0 1025.74 0 0
2024-05-08 14:39:58 10 15.3 0.05 355.9 300 81 15 4 1026.08 0 0
2024-05-08 14:09:41 17 14.7 0.085 248.3 280 83 14 3 1026.08 0 0
2024-05-08 13:39:40 17 14.4 0.085 171.8 293 85 13 3 1025.74 0 0
2024-05-08 13:09:21 14 13.3 0.07 181.5 287 88 13 6 1025.74 0 0
2024-05-08 12:39:20 6 0.6 0.03 172.2 6 87 13 11 1025.74 0 0
2024-05-08 12:09:19 17 15.9 0.085 238.3 312 89 12 9 1025.74 0 0
2024-05-08 11:38:41 11 15.8 0.055 250.5 265 90 12 6 1025.4 0 0
2024-05-08 11:08:19 14 13.2 0.07 155.9 12 92 12 7 1025.4 0 0
2024-05-08 10:38:03 16 13.6 0.08 129.2 336 93 12 4 1025.06 0 0
2024-05-08 10:07:46 14 16 0.07 111.5 260 92 12 2 1025.06 0 0
2024-05-08 09:37:45 14 15.7 0.07 85.7 258 92 12 4 1024.72 0 0
2024-05-08 09:07:44 19 15.3 0.095 87.4 249 90 12 2 1024.38 0 0
2024-05-08 08:37:43 16 15.1 0.08 64.8 266 90 12 4 1024.04 0 0
2024-05-08 08:07:28 20 14.1 0.1 44.1 263 86 12 4 1023.71 0 0
2024-05-08 07:37:28 14 14.5 0.07 32.7 6 83 12 3 1023.37 0 0
2024-05-08 07:07:09 14 14.5 0.07 28.8 252 82 12 5 1023.37 0 0
2024-05-08 06:37:08 13 13.4 0.065 15.6 268 81 13 2 1023.03 0 0
2024-05-08 06:06:51 16 14.3 0.08 8.1 288 80 12 3 1023.03 0 0
2024-05-08 05:36:50 17 14.2 0.085 3.2 318 80 13 9 1022.69 0 0
2024-05-08 05:07:08 1 11.1 0.005 0 264 79 13 4 1022.35 0 0
2024-05-08 04:36:10 1 0.1 0.005 0 270 79 13 4 1022.35 0 0
2024-05-08 04:04:40 16 15.3 0.08 0 271 79 13 5 1022.35 0 0
2024-05-08 02:54:40 18 15.6 0.09 0 291 76 13 6 1022.35 0 0
2024-05-08 01:44:39 10 15.3 0.05 0 297 76 14 3 1022.35 0 0
2024-05-08 00:34:44 18 14.6 0.09 0 324 76 14 0 1022.01 0 0
2024-05-07 23:43:29 11 14.1 0.055